<?xml version='1.0' encoding='UTF-8'?><gpx version="1.1" creator="JPX - https://github.com/jenetics/jpx" xmlns="http://www.topografix.com/GPX/1/1"><trk><trkseg><trkpt lat="43.8214024" lon="11.2314902"><ele>126.0</ele><time>2026-04-24T15:27:52.015Z</time></trkpt><trkpt lat="43.8215613" lon="11.2314402"><ele>126.0</ele><time>2026-04-24T15:27:58.002Z</time></trkpt><trkpt lat="43.8216559" lon="11.2313896"><ele>126.0</ele><time>2026-04-24T15:27:59.016Z</time></trkpt><trkpt lat="43.8216287" lon="11.2314792"><ele>126.0</ele><time>2026-04-24T15:28:04.041Z</time></trkpt><trkpt lat="43.8216206" lon="11.2315726"><ele>126.0</ele><time>2026-04-24T15:28:09.06Z</time></trkpt><trkpt lat="43.8216768" lon="11.2316609"><ele>126.0</ele><time>2026-04-24T15:28:43.039Z</time></trkpt><trkpt lat="43.8216681" lon="11.2317481"><ele>126.0</ele><time>2026-04-24T15:28:51.762Z</time></trkpt><trkpt lat="43.8216186" lon="11.2316845"><ele>126.0</ele><time>2026-04-24T15:28:58.833Z</time></trkpt><trkpt lat="43.8215595" lon="11.2316283"><ele>126.0</ele><time>2026-04-24T15:29:01.83Z</time></trkpt><trkpt lat="43.8215616" lon="11.231529"><ele>126.0</ele><time>2026-04-24T15:29:08.834Z</time></trkpt><trkpt lat="43.8215715" lon="11.2316781"><ele>126.0</ele><time>2026-04-24T15:29:17.855Z</time></trkpt><trkpt lat="43.8216741" lon="11.2316951"><ele>126.0</ele><time>2026-04-24T15:29:59.855Z</time></trkpt><trkpt lat="43.8216456" lon="11.2317841"><ele>126.0</ele><time>2026-04-24T15:30:07.878Z</time></trkpt><trkpt lat="43.8216507" lon="11.2318835"><ele>126.0</ele><time>2026-04-24T15:30:12.872Z</time></trkpt><trkpt lat="43.8215737" lon="11.2319692"><ele>126.0</ele><time>2026-04-24T15:30:14.872Z</time></trkpt><trkpt lat="43.821573" lon="11.2320659"><ele>126.0</ele><time>2026-04-24T15:30:18.875Z</time></trkpt><trkpt lat="43.8215731" lon="11.2321647"><ele>126.0</ele><time>2026-04-24T15:30:23.861Z</time></trkpt><trkpt lat="43.8215724" lon="11.2322575"><ele>126.0</ele><time>2026-04-24T15:30:28.871Z</time></trkpt><trkpt lat="43.821578" lon="11.23236"><ele>127.28571428571428</ele><time>2026-04-24T15:30:34.884Z</time></trkpt><trkpt lat="43.8216467" lon="11.2323783"><ele>128.57142857142856</ele><time>2026-04-24T15:30:42.866Z</time></trkpt><trkpt lat="43.8217106" lon="11.2323869"><ele>129.85714285714286</ele><time>2026-04-24T15:30:46.878Z</time></trkpt><trkpt lat="43.8217813" lon="11.2323424"><ele>131.14285714285714</ele><time>2026-04-24T15:30:50.876Z</time></trkpt><trkpt lat="43.8218531" lon="11.2323168"><ele>132.42857142857142</ele><time>2026-04-24T15:30:54.873Z</time></trkpt><trkpt lat="43.8219162" lon="11.2323085"><ele>133.71428571428572</ele><time>2026-04-24T15:30:57.88Z</time></trkpt><trkpt lat="43.8219899" lon="11.2323236"><ele>135.0</ele><time>2026-04-24T15:31:00.893Z</time></trkpt><trkpt lat="43.822065" lon="11.2323491"><ele>133.83333333333334</ele><time>2026-04-24T15:31:03.879Z</time></trkpt><trkpt lat="43.8221284" lon="11.2323339"><ele>132.66666666666666</ele><time>2026-04-24T15:31:06.878Z</time></trkpt><trkpt lat="43.8222106" lon="11.2323116"><ele>131.5</ele><time>2026-04-24T15:31:10.88Z</time></trkpt><trkpt lat="43.8222926" lon="11.2322845"><ele>130.33333333333331</ele><time>2026-04-24T15:31:13.879Z</time></trkpt><trkpt lat="43.8223794" lon="11.2322624"><ele>129.16666666666666</ele><time>2026-04-24T15:31:16.884Z</time></trkpt><trkpt lat="43.8224406" lon="11.2322397"><ele>128.0</ele><time>2026-04-24T15:31:18.868Z</time></trkpt><trkpt lat="43.822517" lon="11.2322597"><ele>131.0</ele><time>2026-04-24T15:31:20.875Z</time></trkpt><trkpt lat="43.8226017" lon="11.2323068"><ele>134.0</ele><time>2026-04-24T15:31:22.881Z</time></trkpt><trkpt lat="43.8226905" lon="11.2323393"><ele>137.0</ele><time>2026-04-24T15:31:24.88Z</time></trkpt><trkpt lat="43.8227712" lon="11.2323812"><ele>140.0</ele><time>2026-04-24T15:31:26.888Z</time></trkpt><trkpt lat="43.8228428" lon="11.2324111"><ele>143.0</ele><time>2026-04-24T15:31:28.882Z</time></trkpt><trkpt lat="43.8229264" lon="11.2324475"><ele>146.0</ele><time>2026-04-24T15:31:30.872Z</time></trkpt><trkpt lat="43.8229959" lon="11.2324562"><ele>146.0</ele><time>2026-04-24T15:31:32.867Z</time></trkpt><trkpt lat="43.8230726" lon="11.2324495"><ele>146.0</ele><time>2026-04-24T15:31:34.867Z</time></trkpt><trkpt lat="43.8231488" lon="11.2324625"><ele>146.0</ele><time>2026-04-24T15:31:36.871Z</time></trkpt><trkpt lat="43.823219" lon="11.2324772"><ele>146.0</ele><time>2026-04-24T15:31:38.87Z</time></trkpt><trkpt lat="43.8232872" lon="11.2324998"><ele>146.0</ele><time>2026-04-24T15:31:40.88Z</time></trkpt><trkpt lat="43.8233652" lon="11.2325315"><ele>146.0</ele><time>2026-04-24T15:31:42.871Z</time></trkpt><trkpt lat="43.8234579" lon="11.2325581"><ele>145.6</ele><time>2026-04-24T15:31:44.871Z</time></trkpt><trkpt lat="43.8235551" lon="11.2325994"><ele>145.2</ele><time>2026-04-24T15:31:46.875Z</time></trkpt><trkpt lat="43.8236531" lon="11.2326479"><ele>144.8</ele><time>2026-04-24T15:31:48.869Z</time></trkpt><trkpt lat="43.8237453" lon="11.2326889"><ele>144.4</ele><time>2026-04-24T15:31:50.874Z</time></trkpt><trkpt lat="43.8238495" lon="11.2327131"><ele>144.0</ele><time>2026-04-24T15:31:52.864Z</time></trkpt><trkpt lat="43.8239377" lon="11.2327241"><ele>144.0</ele><time>2026-04-24T15:31:54.864Z</time></trkpt><trkpt lat="43.8240061" lon="11.2328136"><ele>144.0</ele><time>2026-04-24T15:31:56.887Z</time></trkpt><trkpt lat="43.8240581" lon="11.2329222"><ele>144.0</ele><time>2026-04-24T15:31:58.877Z</time></trkpt><trkpt lat="43.8241075" lon="11.2330253"><ele>144.0</ele><time>2026-04-24T15:32:00.874Z</time></trkpt><trkpt lat="43.8241753" lon="11.2331091"><ele>144.0</ele><time>2026-04-24T15:32:02.901Z</time></trkpt><trkpt lat="43.8242572" lon="11.2331722"><ele>144.0</ele><time>2026-04-24T15:32:04.885Z</time></trkpt><trkpt lat="43.8243383" lon="11.2332483"><ele>144.0</ele><time>2026-04-24T15:32:06.885Z</time></trkpt><trkpt lat="43.8244241" lon="11.2333065"><ele>144.0</ele><time>2026-04-24T15:32:08.877Z</time></trkpt><trkpt lat="43.8245335" lon="11.2333863"><ele>144.0</ele><time>2026-04-24T15:32:10.883Z</time></trkpt><trkpt lat="43.8246205" lon="11.2334564"><ele>144.0</ele><time>2026-04-24T15:32:12.883Z</time></trkpt><trkpt lat="43.8247127" lon="11.2335207"><ele>144.0</ele><time>2026-04-24T15:32:14.864Z</time></trkpt><trkpt lat="43.8248034" lon="11.2336058"><ele>144.0</ele><time>2026-04-24T15:32:16.874Z</time></trkpt><trkpt lat="43.8248881" lon="11.233693"><ele>144.0</ele><time>2026-04-24T15:32:18.881Z</time></trkpt><trkpt lat="43.8249544" lon="11.2337606"><ele>144.0</ele><time>2026-04-24T15:32:20.875Z</time></trkpt><trkpt lat="43.8250049" lon="11.233815"><ele>144.0</ele><time>2026-04-24T15:32:22.885Z</time></trkpt><trkpt lat="43.825056" lon="11.233883"><ele>144.0</ele><time>2026-04-24T15:32:24.886Z</time></trkpt><trkpt lat="43.8251235" lon="11.2339461"><ele>144.66666666666666</ele><time>2026-04-24T15:32:27.884Z</time></trkpt><trkpt lat="43.8251993" lon="11.2340003"><ele>145.33333333333334</ele><time>2026-04-24T15:32:30.884Z</time></trkpt><trkpt lat="43.825271" lon="11.2340087"><ele>146.0</ele><time>2026-04-24T15:32:33.891Z</time></trkpt><trkpt lat="43.8253308" lon="11.2339458"><ele>146.66666666666669</ele><time>2026-04-24T15:32:36.878Z</time></trkpt><trkpt lat="43.8253663" lon="11.2338034"><ele>147.33333333333334</ele><time>2026-04-24T15:32:39.884Z</time></trkpt><trkpt lat="43.8253894" lon="11.2337131"><ele>148.0</ele><time>2026-04-24T15:32:40.878Z</time></trkpt><trkpt lat="43.8254152" lon="11.2336235"><ele>148.0</ele><time>2026-04-24T15:32:41.869Z</time></trkpt><trkpt lat="43.8254573" lon="11.233534"><ele>148.0</ele><time>2026-04-24T15:32:42.867Z</time></trkpt><trkpt lat="43.8255053" lon="11.2334418"><ele>148.0</ele><time>2026-04-24T15:32:43.864Z</time></trkpt><trkpt lat="43.825563" lon="11.2333729"><ele>148.0</ele><time>2026-04-24T15:32:44.87Z</time></trkpt><trkpt lat="43.8256344" lon="11.2333282"><ele>148.0</ele><time>2026-04-24T15:32:45.867Z</time></trkpt><trkpt lat="43.8257098" lon="11.2332834"><ele>148.0</ele><time>2026-04-24T15:32:46.866Z</time></trkpt><trkpt lat="43.8257713" lon="11.233214"><ele>149.16666666666669</ele><time>2026-04-24T15:32:47.861Z</time></trkpt><trkpt lat="43.8258137" lon="11.2331343"><ele>150.33333333333334</ele><time>2026-04-24T15:32:48.864Z</time></trkpt><trkpt lat="43.8258566" lon="11.2330583"><ele>151.5</ele><time>2026-04-24T15:32:49.863Z</time></trkpt><trkpt lat="43.8259028" lon="11.2329982"><ele>152.66666666666666</ele><time>2026-04-24T15:32:50.865Z</time></trkpt><trkpt lat="43.8260099" lon="11.2329021"><ele>153.83333333333331</ele><time>2026-04-24T15:32:52.873Z</time></trkpt><trkpt lat="43.8260891" lon="11.2328004"><ele>155.0</ele><time>2026-04-24T15:32:54.863Z</time></trkpt><trkpt lat="43.8261506" lon="11.2327167"><ele>155.0</ele><time>2026-04-24T15:32:56.897Z</time></trkpt><trkpt lat="43.8262053" lon="11.2326414"><ele>155.0</ele><time>2026-04-24T15:32:58.883Z</time></trkpt><trkpt lat="43.8262589" lon="11.2325713"><ele>155.0</ele><time>2026-04-24T15:33:00.871Z</time></trkpt><trkpt lat="43.8263017" lon="11.2325071"><ele>155.0</ele><time>2026-04-24T15:33:02.871Z</time></trkpt><trkpt lat="43.8263468" lon="11.2324318"><ele>155.0</ele><time>2026-04-24T15:33:04.9Z</time></trkpt><trkpt lat="43.8263873" lon="11.2323619"><ele>155.0</ele><time>2026-04-24T15:33:06.879Z</time></trkpt><trkpt lat="43.8264411" lon="11.2322973"><ele>155.0</ele><time>2026-04-24T15:33:08.875Z</time></trkpt><trkpt lat="43.8264893" lon="11.2322358"><ele>154.16666666666666</ele><time>2026-04-24T15:33:10.879Z</time></trkpt><trkpt lat="43.8265391" lon="11.2321605"><ele>153.33333333333331</ele><time>2026-04-24T15:33:12.882Z</time></trkpt><trkpt lat="43.8265906" lon="11.232095"><ele>152.5</ele><time>2026-04-24T15:33:14.873Z</time></trkpt><trkpt lat="43.8266542" lon="11.2320081"><ele>151.66666666666666</ele><time>2026-04-24T15:33:17.88Z</time></trkpt><trkpt lat="43.8267119" lon="11.2319461"><ele>150.83333333333334</ele><time>2026-04-24T15:33:20.874Z</time></trkpt><trkpt lat="43.8267841" lon="11.2319142"><ele>150.0</ele><time>2026-04-24T15:33:23.876Z</time></trkpt><trkpt lat="43.8268593" lon="11.2319336"><ele>152.33333333333334</ele><time>2026-04-24T15:33:26.888Z</time></trkpt><trkpt lat="43.8269378" lon="11.2319774"><ele>154.66666666666666</ele><time>2026-04-24T15:33:29.884Z</time></trkpt><trkpt lat="43.8270346" lon="11.2320294"><ele>157.0</ele><time>2026-04-24T15:33:32.875Z</time></trkpt><trkpt lat="43.8271071" lon="11.23207"><ele>159.33333333333331</ele><time>2026-04-24T15:33:34.87Z</time></trkpt><trkpt lat="43.8271703" lon="11.2321076"><ele>161.66666666666666</ele><time>2026-04-24T15:33:36.861Z</time></trkpt><trkpt lat="43.8272377" lon="11.2321643"><ele>164.0</ele><time>2026-04-24T15:33:38.867Z</time></trkpt><trkpt lat="43.8273033" lon="11.2322276"><ele>164.0</ele><time>2026-04-24T15:33:40.872Z</time></trkpt><trkpt lat="43.8273633" lon="11.2322977"><ele>164.0</ele><time>2026-04-24T15:33:42.863Z</time></trkpt><trkpt lat="43.8274265" lon="11.2323674"><ele>164.0</ele><time>2026-04-24T15:33:44.87Z</time></trkpt><trkpt lat="43.8274882" lon="11.2324206"><ele>164.0</ele><time>2026-04-24T15:33:46.874Z</time></trkpt><trkpt lat="43.8275488" lon="11.232474"><ele>164.0</ele><time>2026-04-24T15:33:48.862Z</time></trkpt><trkpt lat="43.8276073" lon="11.2325494"><ele>164.0</ele><time>2026-04-24T15:33:51.871Z</time></trkpt><trkpt lat="43.8276721" lon="11.2326098"><ele>166.7142857142857</ele><time>2026-04-24T15:33:55.873Z</time></trkpt><trkpt lat="43.8277443" lon="11.2326389"><ele>169.42857142857142</ele><time>2026-04-24T15:33:59.882Z</time></trkpt><trkpt lat="43.8278033" lon="11.2326793"><ele>172.14285714285714</ele><time>2026-04-24T15:34:03.869Z</time></trkpt><trkpt lat="43.8278344" lon="11.2327641"><ele>174.85714285714283</ele><time>2026-04-24T15:34:07.859Z</time></trkpt><trkpt lat="43.8278629" lon="11.2328494"><ele>177.57142857142858</ele><time>2026-04-24T15:34:11.86Z</time></trkpt><trkpt lat="43.8279149" lon="11.2329238"><ele>180.28571428571428</ele><time>2026-04-24T15:34:15.87Z</time></trkpt><trkpt lat="43.8279747" lon="11.232989"><ele>183.0</ele><time>2026-04-24T15:34:18.868Z</time></trkpt><trkpt lat="43.8280287" lon="11.233045"><ele>183.0</ele><time>2026-04-24T15:34:22.846Z</time></trkpt><trkpt lat="43.8281134" lon="11.2330862"><ele>183.0</ele><time>2026-04-24T15:34:24.851Z</time></trkpt><trkpt lat="43.8281784" lon="11.2331627"><ele>183.0</ele><time>2026-04-24T15:34:27.851Z</time></trkpt><trkpt lat="43.8282404" lon="11.2331948"><ele>183.0</ele><time>2026-04-24T15:34:31.872Z</time></trkpt><trkpt lat="43.8283034" lon="11.2332168"><ele>183.0</ele><time>2026-04-24T15:34:35.875Z</time></trkpt><trkpt lat="43.8283627" lon="11.2332785"><ele>183.0</ele><time>2026-04-24T15:34:39.881Z</time></trkpt><trkpt lat="43.8284241" lon="11.2333455"><ele>183.0</ele><time>2026-04-24T15:34:42.867Z</time></trkpt><trkpt lat="43.8284968" lon="11.2333853"><ele>183.0</ele><time>2026-04-24T15:34:46.864Z</time></trkpt><trkpt lat="43.8285601" lon="11.2333735"><ele>183.0</ele><time>2026-04-24T15:34:49.878Z</time></trkpt><trkpt lat="43.8285317" lon="11.2332776"><ele>183.0</ele><time>2026-04-24T15:34:54.867Z</time></trkpt><trkpt lat="43.8284868" lon="11.2332125"><ele>183.0</ele><time>2026-04-24T15:34:56.883Z</time></trkpt><trkpt lat="43.8284479" lon="11.2331135"><ele>183.0</ele><time>2026-04-24T15:34:58.871Z</time></trkpt><trkpt lat="43.8283956" lon="11.233027"><ele>183.0</ele><time>2026-04-24T15:35:00.864Z</time></trkpt><trkpt lat="43.8283491" lon="11.232932"><ele>183.0</ele><time>2026-04-24T15:35:02.857Z</time></trkpt><trkpt lat="43.8282878" lon="11.2328357"><ele>183.0</ele><time>2026-04-24T15:35:04.853Z</time></trkpt><trkpt lat="43.8282583" lon="11.2327407"><ele>183.0</ele><time>2026-04-24T15:35:06.867Z</time></trkpt><trkpt lat="43.8281999" lon="11.2326404"><ele>183.0</ele><time>2026-04-24T15:35:09.88Z</time></trkpt><trkpt lat="43.8281591" lon="11.2325203"><ele>183.0</ele><time>2026-04-24T15:35:12.872Z</time></trkpt><trkpt lat="43.82813" lon="11.232417"><ele>183.0</ele><time>2026-04-24T15:35:14.873Z</time></trkpt><trkpt lat="43.828093" lon="11.2323333"><ele>184.0</ele><time>2026-04-24T15:35:16.873Z</time></trkpt><trkpt lat="43.8280665" lon="11.2322221"><ele>185.0</ele><time>2026-04-24T15:35:18.863Z</time></trkpt><trkpt lat="43.8280458" lon="11.2321265"><ele>186.0</ele><time>2026-04-24T15:35:20.869Z</time></trkpt><trkpt lat="43.8280306" lon="11.2320372"><ele>187.0</ele><time>2026-04-24T15:35:22.868Z</time></trkpt><trkpt lat="43.8280053" lon="11.2319384"><ele>188.0</ele><time>2026-04-24T15:35:24.87Z</time></trkpt><trkpt lat="43.8279506" lon="11.231823"><ele>189.0</ele><time>2026-04-24T15:35:27.87Z</time></trkpt><trkpt lat="43.8279182" lon="11.2317419"><ele>189.0</ele><time>2026-04-24T15:35:29.872Z</time></trkpt><trkpt lat="43.8278948" lon="11.2316406"><ele>189.0</ele><time>2026-04-24T15:35:32.861Z</time></trkpt><trkpt lat="43.8278702" lon="11.2315412"><ele>189.0</ele><time>2026-04-24T15:35:35.862Z</time></trkpt><trkpt lat="43.8278693" lon="11.2314343"><ele>189.0</ele><time>2026-04-24T15:35:38.887Z</time></trkpt><trkpt lat="43.8278932" lon="11.231341"><ele>189.0</ele><time>2026-04-24T15:35:41.866Z</time></trkpt><trkpt lat="43.8279127" lon="11.2312506"><ele>189.0</ele><time>2026-04-24T15:35:44.87Z</time></trkpt><trkpt lat="43.8279485" lon="11.2311529"><ele>189.0</ele><time>2026-04-24T15:35:47.868Z</time></trkpt><trkpt lat="43.8279881" lon="11.2310738"><ele>189.5</ele><time>2026-04-24T15:35:50.883Z</time></trkpt><trkpt lat="43.828015" lon="11.2309879"><ele>190.0</ele><time>2026-04-24T15:35:53.878Z</time></trkpt><trkpt lat="43.8280386" lon="11.2308916"><ele>190.5</ele><time>2026-04-24T15:35:56.89Z</time></trkpt><trkpt lat="43.8280508" lon="11.2307663"><ele>191.0</ele><time>2026-04-24T15:35:59.877Z</time></trkpt><trkpt lat="43.8280452" lon="11.2306675"><ele>191.5</ele><time>2026-04-24T15:36:01.881Z</time></trkpt><trkpt lat="43.8280175" lon="11.2305531"><ele>192.0</ele><time>2026-04-24T15:36:03.873Z</time></trkpt><trkpt lat="43.8279869" lon="11.2304414"><ele>192.33333333333334</ele><time>2026-04-24T15:36:05.883Z</time></trkpt><trkpt lat="43.8279508" lon="11.2303413"><ele>192.66666666666669</ele><time>2026-04-24T15:36:07.879Z</time></trkpt><trkpt lat="43.8279324" lon="11.2302419"><ele>193.0</ele><time>2026-04-24T15:36:09.893Z</time></trkpt><trkpt lat="43.8279044" lon="11.2301096"><ele>193.33333333333334</ele><time>2026-04-24T15:36:11.874Z</time></trkpt><trkpt lat="43.8278247" lon="11.2300083"><ele>193.66666666666669</ele><time>2026-04-24T15:36:13.872Z</time></trkpt><trkpt lat="43.8277629" lon="11.2299836"><ele>194.0</ele><time>2026-04-24T15:36:14.867Z</time></trkpt><trkpt lat="43.8276923" lon="11.2299523"><ele>191.00000000000003</ele><time>2026-04-24T15:36:15.869Z</time></trkpt><trkpt lat="43.8276286" lon="11.2299195"><ele>188.0</ele><time>2026-04-24T15:36:16.869Z</time></trkpt><trkpt lat="43.8275481" lon="11.22989"><ele>185.0</ele><time>2026-04-24T15:36:17.852Z</time></trkpt><trkpt lat="43.8274765" lon="11.229858"><ele>182.0</ele><time>2026-04-24T15:36:18.865Z</time></trkpt><trkpt lat="43.8274084" lon="11.229815"><ele>179.0</ele><time>2026-04-24T15:36:19.876Z</time></trkpt><trkpt lat="43.8273417" lon="11.2297723"><ele>176.0</ele><time>2026-04-24T15:36:20.866Z</time></trkpt><trkpt lat="43.8272699" lon="11.2297292"><ele>176.0</ele><time>2026-04-24T15:36:21.878Z</time></trkpt><trkpt lat="43.827194" lon="11.2296831"><ele>176.0</ele><time>2026-04-24T15:36:22.871Z</time></trkpt><trkpt lat="43.8271184" lon="11.2296417"><ele>176.0</ele><time>2026-04-24T15:36:23.872Z</time></trkpt><trkpt lat="43.8270565" lon="11.2296027"><ele>176.0</ele><time>2026-04-24T15:36:24.868Z</time></trkpt><trkpt lat="43.8269774" lon="11.2295497"><ele>176.0</ele><time>2026-04-24T15:36:26.884Z</time></trkpt><trkpt lat="43.8268951" lon="11.2295188"><ele>176.0</ele><time>2026-04-24T15:36:40.896Z</time></trkpt><trkpt lat="43.8268596" lon="11.2294276"><ele>176.0</ele><time>2026-04-24T15:36:43.879Z</time></trkpt><trkpt lat="43.82684" lon="11.2293218"><ele>176.0</ele><time>2026-04-24T15:36:46.867Z</time></trkpt><trkpt lat="43.8268569" lon="11.2292095"><ele>176.0</ele><time>2026-04-24T15:36:49.866Z</time></trkpt><trkpt lat="43.8268972" lon="11.229094"><ele>176.0</ele><time>2026-04-24T15:36:52.856Z</time></trkpt><trkpt lat="43.8269274" lon="11.2289928"><ele>176.0</ele><time>2026-04-24T15:36:54.861Z</time></trkpt><trkpt lat="43.826976" lon="11.2288706"><ele>176.0</ele><time>2026-04-24T15:36:56.872Z</time></trkpt><trkpt lat="43.8270271" lon="11.2287597"><ele>176.0</ele><time>2026-04-24T15:36:58.853Z</time></trkpt><trkpt lat="43.8270621" lon="11.2286615"><ele>176.0</ele><time>2026-04-24T15:37:00.859Z</time></trkpt><trkpt lat="43.8270933" lon="11.2285556"><ele>176.0</ele><time>2026-04-24T15:37:02.863Z</time></trkpt><trkpt lat="43.8271267" lon="11.2284566"><ele>176.0</ele><time>2026-04-24T15:37:04.864Z</time></trkpt><trkpt lat="43.8271427" lon="11.2283635"><ele>176.0</ele><time>2026-04-24T15:37:06.867Z</time></trkpt><trkpt lat="43.8271556" lon="11.2282652"><ele>176.0</ele><time>2026-04-24T15:37:08.872Z</time></trkpt><trkpt lat="43.8271636" lon="11.2281729"><ele>176.0</ele><time>2026-04-24T15:37:10.866Z</time></trkpt><trkpt lat="43.8271951" lon="11.2280659"><ele>175.71428571428572</ele><time>2026-04-24T15:37:13.86Z</time></trkpt><trkpt lat="43.8272274" lon="11.2279839"><ele>175.42857142857142</ele><time>2026-04-24T15:37:15.867Z</time></trkpt><trkpt lat="43.8272688" lon="11.2278971"><ele>175.14285714285714</ele><time>2026-04-24T15:37:17.858Z</time></trkpt><trkpt lat="43.8273326" lon="11.2278335"><ele>174.85714285714286</ele><time>2026-04-24T15:37:19.864Z</time></trkpt><trkpt lat="43.8274027" lon="11.227787"><ele>174.57142857142858</ele><time>2026-04-24T15:37:22.868Z</time></trkpt><trkpt lat="43.8274619" lon="11.2277528"><ele>174.28571428571428</ele><time>2026-04-24T15:38:19.878Z</time></trkpt><trkpt lat="43.8275276" lon="11.2277581"><ele>174.0</ele><time>2026-04-24T15:38:23.884Z</time></trkpt><trkpt lat="43.8275788" lon="11.2278246"><ele>174.0</ele><time>2026-04-24T15:38:27.895Z</time></trkpt><trkpt lat="43.8276375" lon="11.2278645"><ele>174.0</ele><time>2026-04-24T15:38:31.886Z</time></trkpt><trkpt lat="43.8276989" lon="11.2279162"><ele>174.0</ele><time>2026-04-24T15:38:36.88Z</time></trkpt><trkpt lat="43.827767" lon="11.2279959"><ele>174.0</ele><time>2026-04-24T15:38:40.872Z</time></trkpt><trkpt lat="43.8278249" lon="11.2280499"><ele>174.0</ele><time>2026-04-24T15:38:44.891Z</time></trkpt><trkpt lat="43.8278896" lon="11.2280827"><ele>174.0</ele><time>2026-04-24T15:38:48.881Z</time></trkpt><trkpt lat="43.8279676" lon="11.2281133"><ele>174.0</ele><time>2026-04-24T15:43:48.876Z</time></trkpt><trkpt lat="43.8280238" lon="11.2281807"><ele>176.71428571428572</ele><time>2026-04-24T15:43:53.834Z</time></trkpt><trkpt lat="43.8280719" lon="11.2282389"><ele>179.42857142857144</ele><time>2026-04-24T15:43:57.879Z</time></trkpt><trkpt lat="43.8281366" lon="11.2282927"><ele>182.14285714285717</ele><time>2026-04-24T15:44:03.878Z</time></trkpt><trkpt lat="43.8282004" lon="11.2283491"><ele>184.85714285714286</ele><time>2026-04-24T15:44:10.874Z</time></trkpt><trkpt lat="43.8282662" lon="11.2284139"><ele>187.57142857142858</ele><time>2026-04-24T15:44:14.869Z</time></trkpt><trkpt lat="43.8283394" lon="11.2284573"><ele>190.2857142857143</ele><time>2026-04-24T15:44:18.866Z</time></trkpt><trkpt lat="43.8284075" lon="11.2284801"><ele>193.0</ele><time>2026-04-24T15:44:22.878Z</time></trkpt><trkpt lat="43.8284749" lon="11.2285149"><ele>194.57142857142858</ele><time>2026-04-24T15:44:25.864Z</time></trkpt><trkpt lat="43.8285358" lon="11.2285687"><ele>196.14285714285714</ele><time>2026-04-24T15:44:28.864Z</time></trkpt><trkpt lat="43.8285945" lon="11.2286101"><ele>197.71428571428572</ele><time>2026-04-24T15:44:31.873Z</time></trkpt><trkpt lat="43.8286676" lon="11.2286436"><ele>199.28571428571428</ele><time>2026-04-24T15:44:35.872Z</time></trkpt><trkpt lat="43.8287352" lon="11.2286871"><ele>200.85714285714286</ele><time>2026-04-24T15:44:39.881Z</time></trkpt><trkpt lat="43.8287903" lon="11.2287367"><ele>202.42857142857144</ele><time>2026-04-24T15:44:42.88Z</time></trkpt><trkpt lat="43.8288472" lon="11.2288085"><ele>204.0</ele><time>2026-04-24T15:44:46.88Z</time></trkpt><trkpt lat="43.8289064" lon="11.2288443"><ele>204.0</ele><time>2026-04-24T15:44:49.875Z</time></trkpt><trkpt lat="43.8289741" lon="11.2288911"><ele>204.0</ele><time>2026-04-24T15:44:53.877Z</time></trkpt><trkpt lat="43.8290445" lon="11.2289359"><ele>204.0</ele><time>2026-04-24T15:44:56.881Z</time></trkpt><trkpt lat="43.8291156" lon="11.2289876"><ele>204.0</ele><time>2026-04-24T15:44:59.852Z</time></trkpt><trkpt lat="43.829184" lon="11.2290285"><ele>204.0</ele><time>2026-04-24T15:45:03.836Z</time></trkpt><trkpt lat="43.8292532" lon="11.2290777"><ele>204.0</ele><time>2026-04-24T15:45:06.841Z</time></trkpt><trkpt lat="43.8293164" lon="11.2291341"><ele>205.85714285714286</ele><time>2026-04-24T15:45:09.827Z</time></trkpt><trkpt lat="43.8293735" lon="11.2291932"><ele>207.71428571428572</ele><time>2026-04-24T15:45:13.836Z</time></trkpt><trkpt lat="43.8294398" lon="11.2292404"><ele>209.57142857142856</ele><time>2026-04-24T15:45:17.842Z</time></trkpt><trkpt lat="43.8295087" lon="11.2292737"><ele>211.42857142857144</ele><time>2026-04-24T15:45:34.855Z</time></trkpt><trkpt lat="43.8295731" lon="11.2293092"><ele>213.28571428571428</ele><time>2026-04-24T15:45:41.852Z</time></trkpt><trkpt lat="43.8296245" lon="11.2292401"><ele>215.14285714285714</ele><time>2026-04-24T15:47:35.819Z</time></trkpt><trkpt lat="43.8296876" lon="11.2292603"><ele>217.0</ele><time>2026-04-24T15:47:53.818Z</time></trkpt><trkpt lat="43.8296889" lon="11.2293489"><ele>216.99999999999997</ele><time>2026-04-24T15:48:42.855Z</time></trkpt><trkpt lat="43.8297489" lon="11.2293889"><ele>217.0</ele><time>2026-04-24T15:48:47.846Z</time></trkpt><trkpt lat="43.829804" lon="11.2294539"><ele>217.0</ele><time>2026-04-24T15:48:51.845Z</time></trkpt><trkpt lat="43.8298703" lon="11.2295173"><ele>217.0</ele><time>2026-04-24T15:48:54.844Z</time></trkpt><trkpt lat="43.829932" lon="11.2295551"><ele>216.99999999999997</ele><time>2026-04-24T15:48:57.852Z</time></trkpt><trkpt lat="43.830005" lon="11.2295947"><ele>217.0</ele><time>2026-04-24T15:49:00.856Z</time></trkpt><trkpt lat="43.8300822" lon="11.2296424"><ele>217.14285714285714</ele><time>2026-04-24T15:49:03.852Z</time></trkpt><trkpt lat="43.8301643" lon="11.2296625"><ele>217.28571428571428</ele><time>2026-04-24T15:49:07.853Z</time></trkpt><trkpt lat="43.8302257" lon="11.2296834"><ele>217.42857142857144</ele><time>2026-04-24T15:49:10.844Z</time></trkpt><trkpt lat="43.8303" lon="11.2297011"><ele>217.57142857142856</ele><time>2026-04-24T15:49:13.847Z</time></trkpt><trkpt lat="43.8303771" lon="11.2297017"><ele>217.71428571428572</ele><time>2026-04-24T15:49:16.854Z</time></trkpt><trkpt lat="43.8304444" lon="11.2297379"><ele>217.85714285714286</ele><time>2026-04-24T15:49:19.836Z</time></trkpt><trkpt lat="43.830518" lon="11.2297673"><ele>218.0</ele><time>2026-04-24T15:49:23.842Z</time></trkpt><trkpt lat="43.830576" lon="11.2298139"><ele>220.66666666666669</ele><time>2026-04-24T15:49:25.852Z</time></trkpt><trkpt lat="43.8306354" lon="11.2298872"><ele>223.33333333333334</ele><time>2026-04-24T15:49:28.836Z</time></trkpt><trkpt lat="43.8306858" lon="11.2299418"><ele>226.0</ele><time>2026-04-24T15:49:30.846Z</time></trkpt><trkpt lat="43.8307398" lon="11.2300328"><ele>228.66666666666669</ele><time>2026-04-24T15:49:33.858Z</time></trkpt><trkpt lat="43.8307927" lon="11.2301313"><ele>231.33333333333334</ele><time>2026-04-24T15:49:36.841Z</time></trkpt><trkpt lat="43.8308388" lon="11.2302394"><ele>234.0</ele><time>2026-04-24T15:49:39.843Z</time></trkpt><trkpt lat="43.8308906" lon="11.230327"><ele>234.0</ele><time>2026-04-24T15:49:42.847Z</time></trkpt><trkpt lat="43.8309465" lon="11.2303958"><ele>234.0</ele><time>2026-04-24T15:49:45.86Z</time></trkpt><trkpt lat="43.8309659" lon="11.2304887"><ele>234.0</ele><time>2026-04-24T15:49:48.847Z</time></trkpt><trkpt lat="43.8310164" lon="11.2305796"><ele>234.0</ele><time>2026-04-24T15:49:52.851Z</time></trkpt><trkpt lat="43.8310955" lon="11.2306353"><ele>234.0</ele><time>2026-04-24T15:49:55.85Z</time></trkpt><trkpt lat="43.8311532" lon="11.2306815"><ele>234.0</ele><time>2026-04-24T15:49:58.85Z</time></trkpt><trkpt lat="43.8312053" lon="11.2307415"><ele>237.0</ele><time>2026-04-24T15:50:01.854Z</time></trkpt><trkpt lat="43.8312714" lon="11.2307991"><ele>240.0</ele><time>2026-04-24T15:50:05.85Z</time></trkpt><trkpt lat="43.8313205" lon="11.2308854"><ele>243.0</ele><time>2026-04-24T15:50:09.845Z</time></trkpt><trkpt lat="43.8313494" lon="11.2309692"><ele>246.0</ele><time>2026-04-24T15:50:12.852Z</time></trkpt><trkpt lat="43.8313983" lon="11.2310623"><ele>249.0</ele><time>2026-04-24T15:50:16.857Z</time></trkpt><trkpt lat="43.8314599" lon="11.2311145"><ele>252.0</ele><time>2026-04-24T15:50:19.857Z</time></trkpt><trkpt lat="43.8315248" lon="11.2311832"><ele>252.0</ele><time>2026-04-24T15:50:23.855Z</time></trkpt><trkpt lat="43.8315786" lon="11.2312418"><ele>252.0</ele><time>2026-04-24T15:50:26.853Z</time></trkpt><trkpt lat="43.8316391" lon="11.2313066"><ele>252.0</ele><time>2026-04-24T15:50:29.855Z</time></trkpt><trkpt lat="43.8316904" lon="11.2313652"><ele>252.0</ele><time>2026-04-24T15:50:32.853Z</time></trkpt><trkpt lat="43.831738" lon="11.2314271"><ele>252.0</ele><time>2026-04-24T15:50:35.868Z</time></trkpt><trkpt lat="43.8317976" lon="11.2314905"><ele>252.0</ele><time>2026-04-24T15:50:38.843Z</time></trkpt><trkpt lat="43.8318579" lon="11.2315597"><ele>252.0</ele><time>2026-04-24T15:50:42.856Z</time></trkpt><trkpt lat="43.8319302" lon="11.2316224"><ele>254.57142857142856</ele><time>2026-04-24T15:50:46.857Z</time></trkpt><trkpt lat="43.8319924" lon="11.2316678"><ele>257.1428571428571</ele><time>2026-04-24T15:50:49.853Z</time></trkpt><trkpt lat="43.8320505" lon="11.2317361"><ele>259.7142857142857</ele><time>2026-04-24T15:50:52.863Z</time></trkpt><trkpt lat="43.8321047" lon="11.231801"><ele>262.2857142857143</ele><time>2026-04-24T15:50:55.854Z</time></trkpt><trkpt lat="43.832154" lon="11.2318639"><ele>264.85714285714283</ele><time>2026-04-24T15:50:58.861Z</time></trkpt><trkpt lat="43.8322117" lon="11.2319235"><ele>267.42857142857144</ele><time>2026-04-24T15:51:02.865Z</time></trkpt><trkpt lat="43.8322891" lon="11.2319455"><ele>270.0</ele><time>2026-04-24T15:51:07.844Z</time></trkpt><trkpt lat="43.8323486" lon="11.2319751"><ele>270.0</ele><time>2026-04-24T15:51:09.843Z</time></trkpt><trkpt lat="43.8324053" lon="11.2320358"><ele>270.0</ele><time>2026-04-24T15:51:13.846Z</time></trkpt><trkpt lat="43.8325009" lon="11.2320695"><ele>270.0</ele><time>2026-04-24T15:51:16.861Z</time></trkpt><trkpt lat="43.8325621" lon="11.2321129"><ele>270.0</ele><time>2026-04-24T15:51:20.859Z</time></trkpt><trkpt lat="43.8326293" lon="11.2321625"><ele>270.0</ele><time>2026-04-24T15:51:25.85Z</time></trkpt><trkpt lat="43.8326861" lon="11.2322409"><ele>270.0</ele><time>2026-04-24T15:51:30.864Z</time></trkpt><trkpt lat="43.8327708" lon="11.2322726"><ele>270.7142857142857</ele><time>2026-04-24T15:51:34.862Z</time></trkpt><trkpt lat="43.8328337" lon="11.2323018"><ele>271.4285714285714</ele><time>2026-04-24T15:51:37.877Z</time></trkpt><trkpt lat="43.8328841" lon="11.2323645"><ele>272.1428571428571</ele><time>2026-04-24T15:51:40.862Z</time></trkpt><trkpt lat="43.8329485" lon="11.2324178"><ele>272.85714285714283</ele><time>2026-04-24T15:51:43.864Z</time></trkpt><trkpt lat="43.8330063" lon="11.2324888"><ele>273.57142857142856</ele><time>2026-04-24T15:51:46.862Z</time></trkpt><trkpt lat="43.8330518" lon="11.2325514"><ele>274.2857142857143</ele><time>2026-04-24T15:51:49.858Z</time></trkpt><trkpt lat="43.8331045" lon="11.2326119"><ele>275.0</ele><time>2026-04-24T15:51:52.861Z</time></trkpt><trkpt lat="43.8331686" lon="11.2326836"><ele>276.1666666666667</ele><time>2026-04-24T15:51:55.855Z</time></trkpt><trkpt lat="43.8332268" lon="11.2327569"><ele>277.33333333333337</ele><time>2026-04-24T15:51:58.874Z</time></trkpt><trkpt lat="43.8332852" lon="11.2328265"><ele>278.5</ele><time>2026-04-24T15:52:01.868Z</time></trkpt><trkpt lat="43.8333424" lon="11.2328958"><ele>279.6666666666667</ele><time>2026-04-24T15:52:04.869Z</time></trkpt><trkpt lat="43.8333913" lon="11.2329726"><ele>280.8333333333333</ele><time>2026-04-24T15:52:07.871Z</time></trkpt><trkpt lat="43.833447" lon="11.2330369"><ele>282.0</ele><time>2026-04-24T15:52:10.87Z</time></trkpt><trkpt lat="43.8335092" lon="11.2331"><ele>283.7142857142857</ele><time>2026-04-24T15:52:13.873Z</time></trkpt><trkpt lat="43.8335749" lon="11.2331454"><ele>285.42857142857144</ele><time>2026-04-24T15:52:16.869Z</time></trkpt><trkpt lat="43.8336381" lon="11.2332026"><ele>287.1428571428571</ele><time>2026-04-24T15:52:19.863Z</time></trkpt><trkpt lat="43.833714" lon="11.233218"><ele>288.8571428571429</ele><time>2026-04-24T15:52:22.869Z</time></trkpt><trkpt lat="43.8337747" lon="11.2332625"><ele>290.57142857142856</ele><time>2026-04-24T15:52:24.868Z</time></trkpt><trkpt lat="43.8338512" lon="11.2333065"><ele>292.2857142857143</ele><time>2026-04-24T15:52:26.878Z</time></trkpt><trkpt lat="43.8339081" lon="11.2333461"><ele>294.0</ele><time>2026-04-24T15:52:28.881Z</time></trkpt><trkpt lat="43.8339731" lon="11.2333758"><ele>294.0</ele><time>2026-04-24T15:52:30.872Z</time></trkpt><trkpt lat="43.8340427" lon="11.2334124"><ele>294.0</ele><time>2026-04-24T15:52:33.864Z</time></trkpt><trkpt lat="43.8341057" lon="11.233465"><ele>294.0</ele><time>2026-04-24T15:52:36.866Z</time></trkpt><trkpt lat="43.8341774" lon="11.2335243"><ele>294.0</ele><time>2026-04-24T15:52:40.857Z</time></trkpt><trkpt lat="43.8342101" lon="11.2336059"><ele>294.0</ele><time>2026-04-24T15:52:44.863Z</time></trkpt><trkpt lat="43.8342325" lon="11.2336979"><ele>294.0</ele><time>2026-04-24T15:52:47.86Z</time></trkpt><trkpt lat="43.8342684" lon="11.2337917"><ele>294.0</ele><time>2026-04-24T15:52:50.865Z</time></trkpt><trkpt lat="43.8343158" lon="11.2338944"><ele>295.57142857142856</ele><time>2026-04-24T15:52:53.862Z</time></trkpt><trkpt lat="43.8343495" lon="11.2339743"><ele>297.1428571428571</ele><time>2026-04-24T15:52:55.859Z</time></trkpt><trkpt lat="43.8343898" lon="11.2340422"><ele>298.7142857142857</ele><time>2026-04-24T15:52:58.852Z</time></trkpt><trkpt lat="43.8344287" lon="11.2341213"><ele>300.2857142857143</ele><time>2026-04-24T15:53:03.857Z</time></trkpt><trkpt lat="43.8344469" lon="11.2342472"><ele>301.85714285714283</ele><time>2026-04-24T15:53:06.863Z</time></trkpt><trkpt lat="43.8344661" lon="11.2343321"><ele>303.42857142857144</ele><time>2026-04-24T15:53:08.865Z</time></trkpt><trkpt lat="43.8344853" lon="11.234417"><ele>305.0</ele><time>2026-04-24T15:53:10.882Z</time></trkpt><trkpt lat="43.8345541" lon="11.234482"><ele>305.0</ele><time>2026-04-24T15:53:13.868Z</time></trkpt><trkpt lat="43.8346327" lon="11.234543"><ele>305.0</ele><time>2026-04-24T15:53:16.866Z</time></trkpt><trkpt lat="43.8347177" lon="11.2346092"><ele>305.0</ele><time>2026-04-24T15:53:19.869Z</time></trkpt><trkpt lat="43.8347819" lon="11.2346341"><ele>305.0</ele><time>2026-04-24T15:53:21.863Z</time></trkpt><trkpt lat="43.8348422" lon="11.2346743"><ele>305.0</ele><time>2026-04-24T15:53:23.862Z</time></trkpt><trkpt lat="43.834919" lon="11.234738"><ele>305.0</ele><time>2026-04-24T15:53:26.846Z</time></trkpt><trkpt lat="43.8349936" lon="11.2347812"><ele>306.33333333333337</ele><time>2026-04-24T15:53:28.861Z</time></trkpt><trkpt lat="43.8350672" lon="11.2348104"><ele>307.6666666666667</ele><time>2026-04-24T15:53:30.869Z</time></trkpt><trkpt lat="43.8351535" lon="11.2348523"><ele>309.0</ele><time>2026-04-24T15:53:32.858Z</time></trkpt><trkpt lat="43.8352341" lon="11.234893"><ele>310.3333333333333</ele><time>2026-04-24T15:53:34.859Z</time></trkpt><trkpt lat="43.8353051" lon="11.234932"><ele>311.66666666666663</ele><time>2026-04-24T15:53:36.864Z</time></trkpt><trkpt lat="43.8353669" lon="11.2349729"><ele>313.0</ele><time>2026-04-24T15:53:38.858Z</time></trkpt><trkpt lat="43.8354252" lon="11.2350175"><ele>313.42857142857144</ele><time>2026-04-24T15:53:40.859Z</time></trkpt><trkpt lat="43.835498" lon="11.2350572"><ele>313.8571428571429</ele><time>2026-04-24T15:53:42.85Z</time></trkpt><trkpt lat="43.8355595" lon="11.235126"><ele>314.28571428571433</ele><time>2026-04-24T15:53:45.851Z</time></trkpt><trkpt lat="43.8356411" lon="11.2351155"><ele>314.7142857142857</ele><time>2026-04-24T15:53:48.848Z</time></trkpt><trkpt lat="43.8357124" lon="11.2351507"><ele>315.14285714285717</ele><time>2026-04-24T15:53:52.845Z</time></trkpt><trkpt lat="43.8357628" lon="11.2352084"><ele>315.5714285714286</ele><time>2026-04-24T15:53:56.846Z</time></trkpt><trkpt lat="43.835826" lon="11.2352191"><ele>316.0</ele><time>2026-04-24T15:54:00.844Z</time></trkpt><trkpt lat="43.8358986" lon="11.2352437"><ele>316.00000000000006</ele><time>2026-04-24T15:54:04.855Z</time></trkpt><trkpt lat="43.835961" lon="11.2352752"><ele>316.0</ele><time>2026-04-24T15:54:07.851Z</time></trkpt><trkpt lat="43.836026" lon="11.2352832"><ele>316.0</ele><time>2026-04-24T15:54:11.859Z</time></trkpt><trkpt lat="43.8360933" lon="11.2353047"><ele>316.0</ele><time>2026-04-24T15:54:15.855Z</time></trkpt><trkpt lat="43.8361749" lon="11.2353359"><ele>316.0</ele><time>2026-04-24T15:54:20.849Z</time></trkpt><trkpt lat="43.8362471" lon="11.2353591"><ele>316.00000000000006</ele><time>2026-04-24T15:54:24.848Z</time></trkpt><trkpt lat="43.8363186" lon="11.2354118"><ele>316.0</ele><time>2026-04-24T15:54:28.849Z</time></trkpt><trkpt lat="43.8363788" lon="11.2354589"><ele>316.7142857142857</ele><time>2026-04-24T15:54:31.847Z</time></trkpt><trkpt lat="43.8364497" lon="11.235494"><ele>317.42857142857144</ele><time>2026-04-24T15:54:35.843Z</time></trkpt><trkpt lat="43.836514" lon="11.2355223"><ele>318.1428571428571</ele><time>2026-04-24T15:54:39.851Z</time></trkpt><trkpt lat="43.8365753" lon="11.2355574"><ele>318.8571428571429</ele><time>2026-04-24T15:54:43.86Z</time></trkpt><trkpt lat="43.8366359" lon="11.2355828"><ele>319.57142857142856</ele><time>2026-04-24T15:54:49.855Z</time></trkpt><trkpt lat="43.8365806" lon="11.2356335"><ele>320.2857142857143</ele><time>2026-04-24T15:55:40.841Z</time></trkpt><trkpt lat="43.8365207" lon="11.235598"><ele>321.0</ele><time>2026-04-24T15:55:46.834Z</time></trkpt><trkpt lat="43.8364508" lon="11.2356223"><ele>323.2857142857143</ele><time>2026-04-24T15:55:50.836Z</time></trkpt><trkpt lat="43.8363849" lon="11.2356706"><ele>325.57142857142856</ele><time>2026-04-24T15:55:52.823Z</time></trkpt><trkpt lat="43.8363225" lon="11.2357396"><ele>327.8571428571429</ele><time>2026-04-24T15:55:55.838Z</time></trkpt><trkpt lat="43.8362711" lon="11.235796"><ele>330.1428571428571</ele><time>2026-04-24T15:56:00.849Z</time></trkpt><trkpt lat="43.8361945" lon="11.2357676"><ele>332.42857142857144</ele><time>2026-04-24T15:56:05.812Z</time></trkpt><trkpt lat="43.836134" lon="11.2358372"><ele>334.7142857142857</ele><time>2026-04-24T15:56:11.843Z</time></trkpt><trkpt lat="43.8360669" lon="11.2358376"><ele>337.0</ele><time>2026-04-24T15:56:16.858Z</time></trkpt><trkpt lat="43.8359969" lon="11.235868"><ele>336.14285714285717</ele><time>2026-04-24T15:56:23.828Z</time></trkpt><trkpt lat="43.8359409" lon="11.2359364"><ele>335.2857142857143</ele><time>2026-04-24T15:56:26.832Z</time></trkpt><trkpt lat="43.8358849" lon="11.2360028"><ele>334.42857142857144</ele><time>2026-04-24T15:56:29.849Z</time></trkpt><trkpt lat="43.835839" lon="11.2360867"><ele>333.57142857142856</ele><time>2026-04-24T15:56:34.832Z</time></trkpt><trkpt lat="43.8357952" lon="11.2361501"><ele>332.7142857142857</ele><time>2026-04-24T15:56:37.834Z</time></trkpt><trkpt lat="43.835728" lon="11.2361932"><ele>331.8571428571429</ele><time>2026-04-24T15:56:44.849Z</time></trkpt><trkpt lat="43.8357098" lon="11.2362843"><ele>331.0</ele><time>2026-04-24T15:56:50.849Z</time></trkpt><trkpt lat="43.8356894" lon="11.2363767"><ele>331.0</ele><time>2026-04-24T15:56:54.854Z</time></trkpt><trkpt lat="43.8356534" lon="11.2364615"><ele>331.0</ele><time>2026-04-24T15:56:58.852Z</time></trkpt><trkpt lat="43.8356031" lon="11.2365497"><ele>331.0</ele><time>2026-04-24T15:57:01.845Z</time></trkpt><trkpt lat="43.8355814" lon="11.2366492"><ele>331.0</ele><time>2026-04-24T15:57:04.84Z</time></trkpt><trkpt lat="43.83556" lon="11.2367372"><ele>331.0</ele><time>2026-04-24T15:57:06.844Z</time></trkpt><trkpt lat="43.8355282" lon="11.2368451"><ele>331.0</ele><time>2026-04-24T15:57:09.844Z</time></trkpt><trkpt lat="43.8354803" lon="11.2369238"><ele>333.14285714285717</ele><time>2026-04-24T15:57:13.849Z</time></trkpt><trkpt lat="43.8354429" lon="11.2370027"><ele>335.2857142857143</ele><time>2026-04-24T15:57:16.834Z</time></trkpt><trkpt lat="43.8353849" lon="11.2371028"><ele>337.42857142857144</ele><time>2026-04-24T15:57:19.839Z</time></trkpt><trkpt lat="43.8353158" lon="11.2371472"><ele>339.57142857142856</ele><time>2026-04-24T15:57:23.856Z</time></trkpt><trkpt lat="43.8352635" lon="11.2371984"><ele>341.7142857142857</ele><time>2026-04-24T15:57:28.856Z</time></trkpt><trkpt lat="43.8352156" lon="11.2372712"><ele>343.85714285714283</ele><time>2026-04-24T15:57:31.865Z</time></trkpt><trkpt lat="43.8351713" lon="11.2373346"><ele>346.0</ele><time>2026-04-24T15:57:37.861Z</time></trkpt><trkpt lat="43.8351271" lon="11.2374074"><ele>346.0</ele><time>2026-04-24T15:57:47.863Z</time></trkpt><trkpt lat="43.8350884" lon="11.2374985"><ele>346.0</ele><time>2026-04-24T15:57:54.86Z</time></trkpt><trkpt lat="43.8350536" lon="11.2376127"><ele>346.0</ele><time>2026-04-24T15:58:03.861Z</time></trkpt><trkpt lat="43.8350558" lon="11.2377114"><ele>346.0</ele><time>2026-04-24T15:58:08.865Z</time></trkpt><trkpt lat="43.835061" lon="11.2378136"><ele>346.0</ele><time>2026-04-24T15:58:13.853Z</time></trkpt><trkpt lat="43.8350899" lon="11.2379058"><ele>346.0</ele><time>2026-04-24T15:58:19.88Z</time></trkpt><trkpt lat="43.8351164" lon="11.238003"><ele>346.0</ele><time>2026-04-24T15:58:26.87Z</time></trkpt><trkpt lat="43.8351154" lon="11.2381188"><ele>346.0</ele><time>2026-04-24T15:58:31.866Z</time></trkpt><trkpt lat="43.8351195" lon="11.2382182"><ele>346.0</ele><time>2026-04-24T15:58:34.864Z</time></trkpt><trkpt lat="43.8351454" lon="11.2383357"><ele>346.0</ele><time>2026-04-24T15:58:37.851Z</time></trkpt><trkpt lat="43.8351811" lon="11.2384183"><ele>346.0</ele><time>2026-04-24T15:58:39.855Z</time></trkpt><trkpt lat="43.8352291" lon="11.2384921"><ele>346.0</ele><time>2026-04-24T15:58:41.838Z</time></trkpt><trkpt lat="43.8352852" lon="11.2386061"><ele>350.20000000000005</ele><time>2026-04-24T15:58:43.846Z</time></trkpt><trkpt lat="43.8353262" lon="11.2387097"><ele>354.40000000000003</ele><time>2026-04-24T15:58:45.847Z</time></trkpt><trkpt lat="43.8353598" lon="11.2387913"><ele>358.6</ele><time>2026-04-24T15:58:48.829Z</time></trkpt><trkpt lat="43.8354019" lon="11.238938"><ele>362.8</ele><time>2026-04-24T15:58:50.85Z</time></trkpt><trkpt lat="43.8354631" lon="11.2390739"><ele>367.0</ele><time>2026-04-24T15:58:52.822Z</time></trkpt><trkpt lat="43.8354996" lon="11.2392106"><ele>367.0</ele><time>2026-04-24T15:58:54.84Z</time></trkpt><trkpt lat="43.8355301" lon="11.2393125"><ele>367.0</ele><time>2026-04-24T15:58:56.847Z</time></trkpt><trkpt lat="43.8355773" lon="11.2393857"><ele>367.0</ele><time>2026-04-24T15:58:58.84Z</time></trkpt><trkpt lat="43.8356366" lon="11.2394614"><ele>367.0</ele><time>2026-04-24T15:59:01.839Z</time></trkpt><trkpt lat="43.8356832" lon="11.2395283"><ele>367.0</ele><time>2026-04-24T15:59:05.848Z</time></trkpt><trkpt lat="43.8356922" lon="11.2396181"><ele>367.0</ele><time>2026-04-24T15:59:15.859Z</time></trkpt><trkpt lat="43.8356941" lon="11.2397241"><ele>367.0</ele><time>2026-04-24T15:59:23.854Z</time></trkpt><trkpt lat="43.835679" lon="11.2398602"><ele>367.0</ele><time>2026-04-24T15:59:29.839Z</time></trkpt><trkpt lat="43.8356672" lon="11.239955"><ele>367.0</ele><time>2026-04-24T15:59:31.83Z</time></trkpt><trkpt lat="43.8357008" lon="11.2400392"><ele>367.0</ele><time>2026-04-24T15:59:33.851Z</time></trkpt><trkpt lat="43.8357135" lon="11.2401513"><ele>367.0</ele><time>2026-04-24T15:59:36.846Z</time></trkpt><trkpt lat="43.8357322" lon="11.240242"><ele>367.0</ele><time>2026-04-24T15:59:39.855Z</time></trkpt><trkpt lat="43.8357537" lon="11.2403342"><ele>367.0</ele><time>2026-04-24T15:59:42.849Z</time></trkpt><trkpt lat="43.8357869" lon="11.2404264"><ele>367.0</ele><time>2026-04-24T15:59:45.842Z</time></trkpt><trkpt lat="43.8358125" lon="11.2405416"><ele>366.66666666666663</ele><time>2026-04-24T15:59:48.845Z</time></trkpt><trkpt lat="43.8358656" lon="11.2406474"><ele>366.3333333333333</ele><time>2026-04-24T15:59:51.855Z</time></trkpt><trkpt lat="43.8359144" lon="11.2407706"><ele>366.0</ele><time>2026-04-24T15:59:54.85Z</time></trkpt><trkpt lat="43.8359518" lon="11.2408756"><ele>365.6666666666667</ele><time>2026-04-24T15:59:56.848Z</time></trkpt><trkpt lat="43.8359992" lon="11.2409736"><ele>365.33333333333337</ele><time>2026-04-24T15:59:59.845Z</time></trkpt><trkpt lat="43.8360316" lon="11.2410751"><ele>365.0</ele><time>2026-04-24T16:00:04.834Z</time></trkpt><trkpt lat="43.8360851" lon="11.2411741"><ele>368.1666666666667</ele><time>2026-04-24T16:00:06.84Z</time></trkpt><trkpt lat="43.8361385" lon="11.2412554"><ele>371.33333333333337</ele><time>2026-04-24T16:00:09.829Z</time></trkpt><trkpt lat="43.8362007" lon="11.2413199"><ele>374.5</ele><time>2026-04-24T16:00:15.839Z</time></trkpt><trkpt lat="43.8362181" lon="11.2414275"><ele>377.6666666666667</ele><time>2026-04-24T16:00:24.832Z</time></trkpt><trkpt lat="43.8361974" lon="11.2415557"><ele>380.8333333333333</ele><time>2026-04-24T16:00:29.822Z</time></trkpt><trkpt lat="43.8362015" lon="11.2416822"><ele>384.0</ele><time>2026-04-24T16:00:31.833Z</time></trkpt><trkpt lat="43.8362154" lon="11.2417984"><ele>383.99999999999994</ele><time>2026-04-24T16:00:33.84Z</time></trkpt><trkpt lat="43.8362223" lon="11.2419101"><ele>384.0</ele><time>2026-04-24T16:00:37.836Z</time></trkpt><trkpt lat="43.8362221" lon="11.2420031"><ele>384.0</ele><time>2026-04-24T16:00:42.829Z</time></trkpt><trkpt lat="43.8361981" lon="11.2420842"><ele>384.0</ele><time>2026-04-24T16:00:46.828Z</time></trkpt><trkpt lat="43.8361911" lon="11.2422107"><ele>384.0</ele><time>2026-04-24T16:00:49.849Z</time></trkpt><trkpt lat="43.8361978" lon="11.2423004"><ele>383.99999999999994</ele><time>2026-04-24T16:00:53.854Z</time></trkpt><trkpt lat="43.8361453" lon="11.2423527"><ele>384.0</ele><time>2026-04-24T16:00:59.849Z</time></trkpt><trkpt lat="43.8361198" lon="11.2424383"><ele>384.57142857142856</ele><time>2026-04-24T16:01:11.858Z</time></trkpt><trkpt lat="43.8361168" lon="11.2425523"><ele>385.1428571428571</ele><time>2026-04-24T16:01:15.847Z</time></trkpt><trkpt lat="43.8360958" lon="11.2426402"><ele>385.71428571428567</ele><time>2026-04-24T16:01:19.865Z</time></trkpt><trkpt lat="43.8360692" lon="11.2427377"><ele>386.2857142857143</ele><time>2026-04-24T16:01:26.856Z</time></trkpt><trkpt lat="43.836024" lon="11.2428161"><ele>386.8571428571429</ele><time>2026-04-24T16:01:32.845Z</time></trkpt><trkpt lat="43.8359849" lon="11.2429088"><ele>387.4285714285714</ele><time>2026-04-24T16:01:38.852Z</time></trkpt><trkpt lat="43.8359534" lon="11.2429989"><ele>388.0</ele><time>2026-04-24T16:01:44.851Z</time></trkpt><trkpt lat="43.8359038" lon="11.2430531"><ele>388.00000000000006</ele><time>2026-04-24T16:01:48.833Z</time></trkpt><trkpt lat="43.8358942" lon="11.2431539"><ele>388.0</ele><time>2026-04-24T16:01:50.841Z</time></trkpt><trkpt lat="43.8358661" lon="11.2432914"><ele>388.0</ele><time>2026-04-24T16:01:52.841Z</time></trkpt><trkpt lat="43.8358783" lon="11.2434317"><ele>388.0</ele><time>2026-04-24T16:01:55.872Z</time></trkpt><trkpt lat="43.8358616" lon="11.2435278"><ele>388.00000000000006</ele><time>2026-04-24T16:01:59.857Z</time></trkpt><trkpt lat="43.835848" lon="11.2436251"><ele>388.0</ele><time>2026-04-24T16:02:08.858Z</time></trkpt><trkpt lat="43.835909" lon="11.2437089"><ele>389.4285714285714</ele><time>2026-04-24T16:02:13.852Z</time></trkpt><trkpt lat="43.8359824" lon="11.2437275"><ele>390.8571428571429</ele><time>2026-04-24T16:02:16.857Z</time></trkpt><trkpt lat="43.836059" lon="11.2436794"><ele>392.2857142857143</ele><time>2026-04-24T16:02:19.853Z</time></trkpt><trkpt lat="43.8361057" lon="11.2436141"><ele>393.71428571428567</ele><time>2026-04-24T16:02:21.849Z</time></trkpt><trkpt lat="43.8361613" lon="11.2435417"><ele>395.1428571428571</ele><time>2026-04-24T16:02:23.856Z</time></trkpt><trkpt lat="43.8362117" lon="11.2434772"><ele>396.57142857142856</ele><time>2026-04-24T16:02:25.847Z</time></trkpt><trkpt lat="43.836272" lon="11.2434194"><ele>398.0</ele><time>2026-04-24T16:02:27.843Z</time></trkpt><trkpt lat="43.8363288" lon="11.2433222"><ele>397.99999999999994</ele><time>2026-04-24T16:02:29.831Z</time></trkpt><trkpt lat="43.8363782" lon="11.2432416"><ele>398.0</ele><time>2026-04-24T16:02:31.834Z</time></trkpt><trkpt lat="43.8364351" lon="11.2431922"><ele>398.0</ele><time>2026-04-24T16:02:33.835Z</time></trkpt><trkpt lat="43.8365243" lon="11.2430903"><ele>398.0</ele><time>2026-04-24T16:02:35.848Z</time></trkpt><trkpt lat="43.8365915" lon="11.2429819"><ele>397.99999999999994</ele><time>2026-04-24T16:02:37.847Z</time></trkpt><trkpt lat="43.8366452" lon="11.2428913"><ele>398.0</ele><time>2026-04-24T16:02:39.849Z</time></trkpt><trkpt lat="43.8366946" lon="11.242808"><ele>396.57142857142856</ele><time>2026-04-24T16:02:41.837Z</time></trkpt><trkpt lat="43.8367295" lon="11.2427146"><ele>395.1428571428571</ele><time>2026-04-24T16:02:43.84Z</time></trkpt><trkpt lat="43.836758" lon="11.2426243"><ele>393.71428571428567</ele><time>2026-04-24T16:02:45.835Z</time></trkpt><trkpt lat="43.83678" lon="11.2425353"><ele>392.2857142857143</ele><time>2026-04-24T16:02:47.828Z</time></trkpt><trkpt lat="43.8368144" lon="11.2424551"><ele>390.8571428571429</ele><time>2026-04-24T16:02:50.847Z</time></trkpt><trkpt lat="43.8368359" lon="11.2423617"><ele>389.4285714285714</ele><time>2026-04-24T16:02:53.835Z</time></trkpt><trkpt lat="43.8368668" lon="11.2422729"><ele>388.0</ele><time>2026-04-24T16:02:56.841Z</time></trkpt><trkpt lat="43.8369141" lon="11.2421858"><ele>392.50000000000006</ele><time>2026-04-24T16:02:59.836Z</time></trkpt><trkpt lat="43.8369522" lon="11.242112"><ele>397.0</ele><time>2026-04-24T16:03:01.834Z</time></trkpt><trkpt lat="43.8369792" lon="11.2420084"><ele>401.5</ele><time>2026-04-24T16:03:04.834Z</time></trkpt><trkpt lat="43.8369987" lon="11.2419254"><ele>406.0</ele><time>2026-04-24T16:03:06.822Z</time></trkpt><trkpt lat="43.8370041" lon="11.2418097"><ele>410.50000000000006</ele><time>2026-04-24T16:03:08.824Z</time></trkpt><trkpt lat="43.8370174" lon="11.2416967"><ele>415.0</ele><time>2026-04-24T16:03:10.827Z</time></trkpt><trkpt lat="43.8370082" lon="11.2415894"><ele>415.0</ele><time>2026-04-24T16:03:12.827Z</time></trkpt><trkpt lat="43.8370442" lon="11.2415027"><ele>415.0</ele><time>2026-04-24T16:03:16.851Z</time></trkpt><trkpt lat="43.8370724" lon="11.2414199"><ele>415.0</ele><time>2026-04-24T16:03:22.848Z</time></trkpt><trkpt lat="43.8371037" lon="11.2413395"><ele>415.0</ele><time>2026-04-24T16:03:26.847Z</time></trkpt><trkpt lat="43.8371394" lon="11.2412544"><ele>415.0</ele><time>2026-04-24T16:03:29.846Z</time></trkpt><trkpt lat="43.8371668" lon="11.2411618"><ele>415.0</ele><time>2026-04-24T16:03:32.846Z</time></trkpt><trkpt lat="43.8372109" lon="11.2410647"><ele>415.0</ele><time>2026-04-24T16:03:35.853Z</time></trkpt><trkpt lat="43.8372394" lon="11.2409708"><ele>415.14285714285717</ele><time>2026-04-24T16:03:38.852Z</time></trkpt><trkpt lat="43.8372701" lon="11.2408803"><ele>415.28571428571433</ele><time>2026-04-24T16:03:41.848Z</time></trkpt><trkpt lat="43.8372913" lon="11.2407896"><ele>415.42857142857144</ele><time>2026-04-24T16:03:44.85Z</time></trkpt><trkpt lat="43.8373076" lon="11.2407003"><ele>415.57142857142856</ele><time>2026-04-24T16:03:47.86Z</time></trkpt><trkpt lat="43.8373422" lon="11.240618"><ele>415.7142857142857</ele><time>2026-04-24T16:03:50.858Z</time></trkpt><trkpt lat="43.8373747" lon="11.2405272"><ele>415.85714285714283</ele><time>2026-04-24T16:03:53.856Z</time></trkpt><trkpt lat="43.8374082" lon="11.2404328"><ele>416.0</ele><time>2026-04-24T16:03:56.861Z</time></trkpt><trkpt lat="43.8374386" lon="11.2403532"><ele>415.57142857142856</ele><time>2026-04-24T16:04:01.86Z</time></trkpt><trkpt lat="43.8374682" lon="11.2402633"><ele>415.14285714285717</ele><time>2026-04-24T16:04:05.857Z</time></trkpt><trkpt lat="43.8374988" lon="11.240175"><ele>414.7142857142857</ele><time>2026-04-24T16:04:08.866Z</time></trkpt><trkpt lat="43.8375304" lon="11.2400736"><ele>414.2857142857143</ele><time>2026-04-24T16:04:12.862Z</time></trkpt><trkpt lat="43.8375524" lon="11.2399711"><ele>413.8571428571429</ele><time>2026-04-24T16:04:16.858Z</time></trkpt><trkpt lat="43.8375927" lon="11.2398832"><ele>413.42857142857144</ele><time>2026-04-24T16:04:21.86Z</time></trkpt><trkpt lat="43.8376597" lon="11.239838"><ele>413.0</ele><time>2026-04-24T16:04:26.876Z</time></trkpt><trkpt lat="43.837717" lon="11.2398751"><ele>416.0</ele><time>2026-04-24T16:04:33.863Z</time></trkpt><trkpt lat="43.8377477" lon="11.239956"><ele>419.0</ele><time>2026-04-24T16:04:41.851Z</time></trkpt><trkpt lat="43.8377888" lon="11.2400462"><ele>422.0</ele><time>2026-04-24T16:04:46.867Z</time></trkpt><trkpt lat="43.8378316" lon="11.2401106"><ele>425.0</ele><time>2026-04-24T16:04:51.856Z</time></trkpt><trkpt lat="43.8378807" lon="11.2401774"><ele>428.0</ele><time>2026-04-24T16:05:00.853Z</time></trkpt><trkpt lat="43.8379448" lon="11.240238"><ele>431.0</ele><time>2026-04-24T16:05:06.864Z</time></trkpt><trkpt lat="43.8379947" lon="11.2402945"><ele>434.0</ele><time>2026-04-24T16:05:11.847Z</time></trkpt><trkpt lat="43.8380279" lon="11.2403692"><ele>434.0</ele><time>2026-04-24T16:05:21.846Z</time></trkpt><trkpt lat="43.838085" lon="11.2404083"><ele>434.0</ele><time>2026-04-24T16:07:34.867Z</time></trkpt><trkpt lat="43.8381293" lon="11.2404903"><ele>434.0</ele><time>2026-04-24T16:07:40.87Z</time></trkpt><trkpt lat="43.8381648" lon="11.2405775"><ele>434.0</ele><time>2026-04-24T16:07:44.872Z</time></trkpt><trkpt lat="43.8381905" lon="11.240672"><ele>434.0</ele><time>2026-04-24T16:07:49.867Z</time></trkpt><trkpt lat="43.8382396" lon="11.2407377"><ele>434.0</ele><time>2026-04-24T16:07:54.877Z</time></trkpt><trkpt lat="43.8382633" lon="11.2408205"><ele>434.0</ele><time>2026-04-24T16:07:59.873Z</time></trkpt><trkpt lat="43.8382993" lon="11.2409065"><ele>434.85714285714283</ele><time>2026-04-24T16:08:04.867Z</time></trkpt><trkpt lat="43.8383353" lon="11.2409916"><ele>435.7142857142857</ele><time>2026-04-24T16:08:09.87Z</time></trkpt><trkpt lat="43.8383846" lon="11.2410696"><ele>436.57142857142856</ele><time>2026-04-24T16:08:13.873Z</time></trkpt><trkpt lat="43.8384255" lon="11.2411385"><ele>437.42857142857144</ele><time>2026-04-24T16:08:17.867Z</time></trkpt><trkpt lat="43.8384737" lon="11.2412014"><ele>438.2857142857143</ele><time>2026-04-24T16:08:21.869Z</time></trkpt><trkpt lat="43.8385133" lon="11.2412735"><ele>439.1428571428571</ele><time>2026-04-24T16:08:25.868Z</time></trkpt><trkpt lat="43.8385475" lon="11.2413506"><ele>440.0</ele><time>2026-04-24T16:08:30.862Z</time></trkpt><trkpt lat="43.8385768" lon="11.2414378"><ele>443.71428571428567</ele><time>2026-04-24T16:08:35.863Z</time></trkpt><trkpt lat="43.8386304" lon="11.2415298"><ele>447.42857142857144</ele><time>2026-04-24T16:08:39.851Z</time></trkpt><trkpt lat="43.8386817" lon="11.2415849"><ele>451.1428571428571</ele><time>2026-04-24T16:08:44.868Z</time></trkpt><trkpt lat="43.8387296" lon="11.2416566"><ele>454.85714285714283</ele><time>2026-04-24T16:08:50.872Z</time></trkpt><trkpt lat="43.8387843" lon="11.2417146"><ele>458.57142857142856</ele><time>2026-04-24T16:08:55.872Z</time></trkpt><trkpt lat="43.8388533" lon="11.2417388"><ele>462.2857142857143</ele><time>2026-04-24T16:09:01.869Z</time></trkpt><trkpt lat="43.8389088" lon="11.2418064"><ele>466.0</ele><time>2026-04-24T16:09:07.874Z</time></trkpt><trkpt lat="43.8389647" lon="11.2418718"><ele>466.0</ele><time>2026-04-24T16:09:12.873Z</time></trkpt><trkpt lat="43.8390248" lon="11.2419027"><ele>466.0</ele><time>2026-04-24T16:09:17.871Z</time></trkpt><trkpt lat="43.8390814" lon="11.2419714"><ele>466.0</ele><time>2026-04-24T16:09:22.861Z</time></trkpt><trkpt lat="43.8391373" lon="11.2420184"><ele>466.0</ele><time>2026-04-24T16:09:27.871Z</time></trkpt><trkpt lat="43.8392043" lon="11.2420639"><ele>466.0</ele><time>2026-04-24T16:09:32.869Z</time></trkpt><trkpt lat="43.8392627" lon="11.2421208"><ele>466.0</ele><time>2026-04-24T16:09:38.872Z</time></trkpt><trkpt lat="43.8393153" lon="11.2421764"><ele>466.0</ele><time>2026-04-24T16:09:43.862Z</time></trkpt><trkpt lat="43.8393569" lon="11.2422483"><ele>469.28571428571433</ele><time>2026-04-24T16:09:47.861Z</time></trkpt><trkpt lat="43.8394142" lon="11.242317"><ele>472.57142857142856</ele><time>2026-04-24T16:09:52.86Z</time></trkpt><trkpt lat="43.8394493" lon="11.2424097"><ele>475.8571428571429</ele><time>2026-04-24T16:09:57.861Z</time></trkpt><trkpt lat="43.8395088" lon="11.2424526"><ele>479.14285714285717</ele><time>2026-04-24T16:10:02.872Z</time></trkpt><trkpt lat="43.8395806" lon="11.2424728"><ele>482.42857142857144</ele><time>2026-04-24T16:10:30.865Z</time></trkpt><trkpt lat="43.8396505" lon="11.2424677"><ele>485.7142857142857</ele><time>2026-04-24T16:10:35.867Z</time></trkpt><trkpt lat="43.8397182" lon="11.2424393"><ele>489.0</ele><time>2026-04-24T16:10:42.87Z</time></trkpt><trkpt lat="43.8397849" lon="11.2424349"><ele>489.0</ele><time>2026-04-24T16:10:47.871Z</time></trkpt><trkpt lat="43.8398738" lon="11.2424158"><ele>489.0</ele><time>2026-04-24T16:10:52.86Z</time></trkpt><trkpt lat="43.8399433" lon="11.2424014"><ele>489.0</ele><time>2026-04-24T16:10:55.859Z</time></trkpt><trkpt lat="43.8400131" lon="11.2423913"><ele>489.0</ele><time>2026-04-24T16:10:58.862Z</time></trkpt><trkpt lat="43.8400912" lon="11.2424012"><ele>489.0</ele><time>2026-04-24T16:11:02.853Z</time></trkpt><trkpt lat="43.8401681" lon="11.2424316"><ele>489.0</ele><time>2026-04-24T16:11:06.864Z</time></trkpt><trkpt lat="43.8402443" lon="11.2424299"><ele>489.5714285714286</ele><time>2026-04-24T16:11:10.861Z</time></trkpt><trkpt lat="43.8403238" lon="11.2424455"><ele>490.1428571428572</ele><time>2026-04-24T16:11:14.859Z</time></trkpt><trkpt lat="43.8403904" lon="11.2424589"><ele>490.7142857142857</ele><time>2026-04-24T16:11:18.859Z</time></trkpt><trkpt lat="43.8404529" lon="11.2425151"><ele>491.28571428571433</ele><time>2026-04-24T16:11:22.863Z</time></trkpt><trkpt lat="43.8405155" lon="11.2425503"><ele>491.8571428571429</ele><time>2026-04-24T16:11:26.863Z</time></trkpt><trkpt lat="43.8405775" lon="11.242571"><ele>492.42857142857144</ele><time>2026-04-24T16:11:29.854Z</time></trkpt><trkpt lat="43.8406452" lon="11.2425808"><ele>493.0</ele><time>2026-04-24T16:11:33.857Z</time></trkpt><trkpt lat="43.8407241" lon="11.2425841"><ele>493.0</ele><time>2026-04-24T16:11:37.855Z</time></trkpt><trkpt lat="43.8407882" lon="11.2426066"><ele>493.0</ele><time>2026-04-24T16:11:41.859Z</time></trkpt><trkpt lat="43.8408578" lon="11.2426142"><ele>493.0</ele><time>2026-04-24T16:11:45.862Z</time></trkpt><trkpt lat="43.8409212" lon="11.2426075"><ele>493.0</ele><time>2026-04-24T16:11:48.852Z</time></trkpt><trkpt lat="43.8409966" lon="11.2426095"><ele>493.0</ele><time>2026-04-24T16:11:51.852Z</time></trkpt><trkpt lat="43.8410723" lon="11.2426222"><ele>493.0</ele><time>2026-04-24T16:11:54.853Z</time></trkpt><trkpt lat="43.8411625" lon="11.2426099"><ele>493.0</ele><time>2026-04-24T16:11:57.861Z</time></trkpt><trkpt lat="43.8412433" lon="11.2426021"><ele>492.71428571428567</ele><time>2026-04-24T16:11:59.844Z</time></trkpt><trkpt lat="43.841334" lon="11.2425901"><ele>492.42857142857144</ele><time>2026-04-24T16:12:01.856Z</time></trkpt><trkpt lat="43.8413988" lon="11.2425935"><ele>492.1428571428571</ele><time>2026-04-24T16:12:03.856Z</time></trkpt><trkpt lat="43.8414735" lon="11.242606"><ele>491.85714285714283</ele><time>2026-04-24T16:12:05.846Z</time></trkpt><trkpt lat="43.8415452" lon="11.2426081"><ele>491.57142857142856</ele><time>2026-04-24T16:12:07.847Z</time></trkpt><trkpt lat="43.8416228" lon="11.2426218"><ele>491.2857142857143</ele><time>2026-04-24T16:12:10.852Z</time></trkpt><trkpt lat="43.8416873" lon="11.2426208"><ele>491.0</ele><time>2026-04-24T16:12:13.861Z</time></trkpt><trkpt lat="43.8417766" lon="11.2426305"><ele>489.99999999999994</ele><time>2026-04-24T16:12:16.852Z</time></trkpt><trkpt lat="43.8418409" lon="11.2426494"><ele>489.0</ele><time>2026-04-24T16:12:18.849Z</time></trkpt><trkpt lat="43.841934" lon="11.2426696"><ele>488.0</ele><time>2026-04-24T16:12:21.851Z</time></trkpt><trkpt lat="43.8420248" lon="11.2426737"><ele>487.0</ele><time>2026-04-24T16:12:24.859Z</time></trkpt><trkpt lat="43.8421029" lon="11.2426928"><ele>485.99999999999994</ele><time>2026-04-24T16:12:27.856Z</time></trkpt><trkpt lat="43.8421663" lon="11.2427328"><ele>485.0</ele><time>2026-04-24T16:12:30.854Z</time></trkpt><trkpt lat="43.8422529" lon="11.2427545"><ele>485.00000000000006</ele><time>2026-04-24T16:12:34.85Z</time></trkpt><trkpt lat="43.8423225" lon="11.2427766"><ele>485.0</ele><time>2026-04-24T16:12:38.854Z</time></trkpt><trkpt lat="43.8423882" lon="11.2427979"><ele>485.00000000000006</ele><time>2026-04-24T16:12:42.857Z</time></trkpt><trkpt lat="43.8424594" lon="11.2428275"><ele>485.00000000000006</ele><time>2026-04-24T16:12:46.858Z</time></trkpt><trkpt lat="43.8425276" lon="11.2428397"><ele>485.0</ele><time>2026-04-24T16:12:50.855Z</time></trkpt><trkpt lat="43.8425938" lon="11.2428447"><ele>485.00000000000006</ele><time>2026-04-24T16:12:53.852Z</time></trkpt><trkpt lat="43.8426633" lon="11.2428636"><ele>485.00000000000006</ele><time>2026-04-24T16:12:57.857Z</time></trkpt><trkpt lat="43.8427303" lon="11.2428717"><ele>486.00000000000006</ele><time>2026-04-24T16:13:01.856Z</time></trkpt><trkpt lat="43.8428018" lon="11.2428817"><ele>487.0</ele><time>2026-04-24T16:13:05.852Z</time></trkpt><trkpt lat="43.8428814" lon="11.242879"><ele>488.00000000000006</ele><time>2026-04-24T16:13:09.851Z</time></trkpt><trkpt lat="43.8429601" lon="11.2428736"><ele>489.00000000000006</ele><time>2026-04-24T16:13:13.857Z</time></trkpt><trkpt lat="43.8430273" lon="11.2428601"><ele>490.0</ele><time>2026-04-24T16:13:17.853Z</time></trkpt><trkpt lat="43.8430967" lon="11.2428211"><ele>491.00000000000006</ele><time>2026-04-24T16:13:21.854Z</time></trkpt><trkpt lat="43.8431606" lon="11.2427912"><ele>492.00000000000006</ele><time>2026-04-24T16:13:25.854Z</time></trkpt><trkpt lat="43.8432302" lon="11.2427595"><ele>492.00000000000006</ele><time>2026-04-24T16:13:29.854Z</time></trkpt><trkpt lat="43.8433027" lon="11.2427221"><ele>492.0</ele><time>2026-04-24T16:13:34.858Z</time></trkpt><trkpt lat="43.8433728" lon="11.2426858"><ele>492.00000000000006</ele><time>2026-04-24T16:13:39.857Z</time></trkpt><trkpt lat="43.8434404" lon="11.2426668"><ele>492.00000000000006</ele><time>2026-04-24T16:13:43.856Z</time></trkpt><trkpt lat="43.843512" lon="11.242652"><ele>492.0</ele><time>2026-04-24T16:13:47.891Z</time></trkpt><trkpt lat="43.8435865" lon="11.2426298"><ele>492.00000000000006</ele><time>2026-04-24T16:13:52.86Z</time></trkpt><trkpt lat="43.8436543" lon="11.2425915"><ele>492.00000000000006</ele><time>2026-04-24T16:13:58.863Z</time></trkpt><trkpt lat="43.8437209" lon="11.2425671"><ele>493.6666666666667</ele><time>2026-04-24T16:14:04.864Z</time></trkpt><trkpt lat="43.8437987" lon="11.2425508"><ele>495.33333333333337</ele><time>2026-04-24T16:14:09.862Z</time></trkpt><trkpt lat="43.8438733" lon="11.242562"><ele>497.0</ele><time>2026-04-24T16:14:14.866Z</time></trkpt><trkpt lat="43.8439473" lon="11.2425546"><ele>498.6666666666667</ele><time>2026-04-24T16:14:19.865Z</time></trkpt><trkpt lat="43.8440274" lon="11.2425534"><ele>500.33333333333337</ele><time>2026-04-24T16:14:23.865Z</time></trkpt><trkpt lat="43.8440954" lon="11.2425608"><ele>502.0</ele><time>2026-04-24T16:14:26.866Z</time></trkpt><trkpt lat="43.8441848" lon="11.2425569"><ele>502.00000000000006</ele><time>2026-04-24T16:14:29.861Z</time></trkpt><trkpt lat="43.8442519" lon="11.2425717"><ele>502.0</ele><time>2026-04-24T16:14:31.853Z</time></trkpt><trkpt lat="43.8443309" lon="11.242582"><ele>502.0</ele><time>2026-04-24T16:14:33.855Z</time></trkpt><trkpt lat="43.8444297" lon="11.242597"><ele>502.0</ele><time>2026-04-24T16:14:35.848Z</time></trkpt><trkpt lat="43.8445128" lon="11.242615"><ele>502.00000000000006</ele><time>2026-04-24T16:14:37.844Z</time></trkpt><trkpt lat="43.8445947" lon="11.24264"><ele>502.0</ele><time>2026-04-24T16:14:39.835Z</time></trkpt><trkpt lat="43.8446601" lon="11.2426899"><ele>500.1428571428571</ele><time>2026-04-24T16:14:41.849Z</time></trkpt><trkpt lat="43.8447209" lon="11.2427317"><ele>498.2857142857143</ele><time>2026-04-24T16:14:43.844Z</time></trkpt><trkpt lat="43.844779" lon="11.2427826"><ele>496.42857142857144</ele><time>2026-04-24T16:14:46.843Z</time></trkpt><trkpt lat="43.8448339" lon="11.2428378"><ele>494.57142857142856</ele><time>2026-04-24T16:14:51.848Z</time></trkpt><trkpt lat="43.8448886" lon="11.2429091"><ele>492.7142857142858</ele><time>2026-04-24T16:14:55.855Z</time></trkpt><trkpt lat="43.8449509" lon="11.242965"><ele>490.8571428571429</ele><time>2026-04-24T16:14:59.852Z</time></trkpt><trkpt lat="43.8449959" lon="11.2430394"><ele>489.0</ele><time>2026-04-24T16:15:02.848Z</time></trkpt><trkpt lat="43.8450469" lon="11.2431194"><ele>490.14285714285717</ele><time>2026-04-24T16:15:05.847Z</time></trkpt><trkpt lat="43.8450736" lon="11.2432017"><ele>491.28571428571433</ele><time>2026-04-24T16:15:07.842Z</time></trkpt><trkpt lat="43.8451152" lon="11.2433029"><ele>492.42857142857144</ele><time>2026-04-24T16:15:10.842Z</time></trkpt><trkpt lat="43.8451537" lon="11.2433798"><ele>493.57142857142856</ele><time>2026-04-24T16:15:13.844Z</time></trkpt><trkpt lat="43.8451827" lon="11.243464"><ele>494.7142857142857</ele><time>2026-04-24T16:15:17.849Z</time></trkpt><trkpt lat="43.8452012" lon="11.243552"><ele>495.8571428571429</ele><time>2026-04-24T16:15:22.849Z</time></trkpt><trkpt lat="43.845242" lon="11.2436333"><ele>497.0</ele><time>2026-04-24T16:15:27.847Z</time></trkpt><trkpt lat="43.8452779" lon="11.2437104"><ele>497.0</ele><time>2026-04-24T16:15:32.844Z</time></trkpt><trkpt lat="43.845335" lon="11.2437593"><ele>497.0</ele><time>2026-04-24T16:15:37.837Z</time></trkpt><trkpt lat="43.8453963" lon="11.2438154"><ele>497.0</ele><time>2026-04-24T16:15:42.843Z</time></trkpt><trkpt lat="43.8454567" lon="11.2438404"><ele>497.0</ele><time>2026-04-24T16:15:46.844Z</time></trkpt><trkpt lat="43.8455176" lon="11.2438871"><ele>497.0</ele><time>2026-04-24T16:15:50.856Z</time></trkpt><trkpt lat="43.8455754" lon="11.2439292"><ele>497.0</ele><time>2026-04-24T16:15:54.844Z</time></trkpt><trkpt lat="43.8456483" lon="11.2439684"><ele>497.0</ele><time>2026-04-24T16:15:59.844Z</time></trkpt><trkpt lat="43.8457142" lon="11.2439753"><ele>500.8333333333333</ele><time>2026-04-24T16:16:03.843Z</time></trkpt><trkpt lat="43.8457896" lon="11.2440106"><ele>504.66666666666663</ele><time>2026-04-24T16:16:08.841Z</time></trkpt><trkpt lat="43.8458643" lon="11.2440388"><ele>508.5</ele><time>2026-04-24T16:16:12.847Z</time></trkpt><trkpt lat="43.8459287" lon="11.2440602"><ele>512.3333333333334</ele><time>2026-04-24T16:16:15.848Z</time></trkpt><trkpt lat="43.846011" lon="11.2441057"><ele>516.1666666666667</ele><time>2026-04-24T16:16:19.856Z</time></trkpt><trkpt lat="43.8460871" lon="11.2441364"><ele>520.0</ele><time>2026-04-24T16:16:23.848Z</time></trkpt><trkpt lat="43.8461612" lon="11.2441696"><ele>520.0000000000001</ele><time>2026-04-24T16:16:27.844Z</time></trkpt><trkpt lat="43.8462181" lon="11.2442082"><ele>520.0</ele><time>2026-04-24T16:16:31.841Z</time></trkpt><trkpt lat="43.84623" lon="11.244308"><ele>520.0</ele><time>2026-04-24T16:18:23.847Z</time></trkpt><trkpt lat="43.8461809" lon="11.2443738"><ele>520.0</ele><time>2026-04-24T16:18:29.846Z</time></trkpt><trkpt lat="43.8461185" lon="11.2443953"><ele>520.0</ele><time>2026-04-24T16:18:35.847Z</time></trkpt><trkpt lat="43.8460544" lon="11.244417"><ele>520.0000000000001</ele><time>2026-04-24T16:18:41.842Z</time></trkpt><trkpt lat="43.8459828" lon="11.2444387"><ele>520.0</ele><time>2026-04-24T16:18:47.843Z</time></trkpt><trkpt lat="43.8459231" lon="11.2444875"><ele>520.4285714285714</ele><time>2026-04-24T16:19:04.845Z</time></trkpt><trkpt lat="43.8458458" lon="11.2445422"><ele>520.8571428571429</ele><time>2026-04-24T16:20:14.847Z</time></trkpt><trkpt lat="43.845795" lon="11.2446156"><ele>521.2857142857142</ele><time>2026-04-24T16:20:44.854Z</time></trkpt><trkpt lat="43.8457379" lon="11.2446525"><ele>521.7142857142858</ele><time>2026-04-24T16:20:50.848Z</time></trkpt><trkpt lat="43.8456616" lon="11.2446647"><ele>522.1428571428571</ele><time>2026-04-24T16:20:56.846Z</time></trkpt><trkpt lat="43.8455926" lon="11.2446615"><ele>522.5714285714286</ele><time>2026-04-24T16:21:01.849Z</time></trkpt><trkpt lat="43.8455232" lon="11.2446809"><ele>523.0</ele><time>2026-04-24T16:21:06.844Z</time></trkpt><trkpt lat="43.8454537" lon="11.244672"><ele>523.0</ele><time>2026-04-24T16:21:10.844Z</time></trkpt><trkpt lat="43.8453774" lon="11.2446502"><ele>523.0</ele><time>2026-04-24T16:21:14.852Z</time></trkpt><trkpt lat="43.8453118" lon="11.244628"><ele>523.0</ele><time>2026-04-24T16:21:18.85Z</time></trkpt><trkpt lat="43.8452359" lon="11.2446254"><ele>523.0</ele><time>2026-04-24T16:21:51.846Z</time></trkpt><trkpt lat="43.845147" lon="11.2445756"><ele>523.0</ele><time>2026-04-24T16:21:56.821Z</time></trkpt><trkpt lat="43.8450765" lon="11.2445784"><ele>523.0</ele><time>2026-04-24T16:21:59.83Z</time></trkpt><trkpt lat="43.8450091" lon="11.2445569"><ele>525.7142857142857</ele><time>2026-04-24T16:22:07.848Z</time></trkpt><trkpt lat="43.8449478" lon="11.2445318"><ele>528.4285714285714</ele><time>2026-04-24T16:22:11.852Z</time></trkpt><trkpt lat="43.8448571" lon="11.2445047"><ele>531.1428571428571</ele><time>2026-04-24T16:22:14.842Z</time></trkpt><trkpt lat="43.8447881" lon="11.2445086"><ele>533.8571428571429</ele><time>2026-04-24T16:22:16.843Z</time></trkpt><trkpt lat="43.8447175" lon="11.2444985"><ele>536.5714285714286</ele><time>2026-04-24T16:22:19.847Z</time></trkpt><trkpt lat="43.844661" lon="11.2445462"><ele>539.2857142857142</ele><time>2026-04-24T16:22:23.858Z</time></trkpt><trkpt lat="43.8446029" lon="11.2446032"><ele>542.0</ele><time>2026-04-24T16:22:28.853Z</time></trkpt><trkpt lat="43.8445531" lon="11.2446819"><ele>542.0</ele><time>2026-04-24T16:22:32.856Z</time></trkpt><trkpt lat="43.8445142" lon="11.2447509"><ele>542.0</ele><time>2026-04-24T16:22:36.859Z</time></trkpt><trkpt lat="43.8444628" lon="11.2448228"><ele>542.0</ele><time>2026-04-24T16:22:40.862Z</time></trkpt><trkpt lat="43.8444226" lon="11.2449002"><ele>542.0</ele><time>2026-04-24T16:22:44.859Z</time></trkpt><trkpt lat="43.8443692" lon="11.244974"><ele>542.0</ele><time>2026-04-24T16:22:49.856Z</time></trkpt><trkpt lat="43.8443048" lon="11.2450064"><ele>542.0</ele><time>2026-04-24T16:23:21.855Z</time></trkpt><trkpt lat="43.8442349" lon="11.2450452"><ele>542.0</ele><time>2026-04-24T16:23:26.858Z</time></trkpt><trkpt lat="43.8441703" lon="11.245114"><ele>544.7142857142857</ele><time>2026-04-24T16:23:30.854Z</time></trkpt><trkpt lat="43.8441101" lon="11.2451651"><ele>547.4285714285714</ele><time>2026-04-24T16:23:34.859Z</time></trkpt><trkpt lat="43.8440436" lon="11.2451909"><ele>550.1428571428571</ele><time>2026-04-24T16:23:39.848Z</time></trkpt><trkpt lat="43.8439815" lon="11.2452348"><ele>552.8571428571429</ele><time>2026-04-24T16:23:43.851Z</time></trkpt><trkpt lat="43.8439279" lon="11.2452825"><ele>555.5714285714286</ele><time>2026-04-24T16:23:47.851Z</time></trkpt><trkpt lat="43.8438541" lon="11.2453206"><ele>558.2857142857142</ele><time>2026-04-24T16:23:52.85Z</time></trkpt><trkpt lat="43.8437978" lon="11.2453691"><ele>561.0</ele><time>2026-04-24T16:23:57.847Z</time></trkpt><trkpt lat="43.8437176" lon="11.2453825"><ele>561.0</ele><time>2026-04-24T16:24:01.843Z</time></trkpt><trkpt lat="43.8436351" lon="11.2453929"><ele>561.0</ele><time>2026-04-24T16:24:05.858Z</time></trkpt><trkpt lat="43.8435668" lon="11.2453864"><ele>561.0</ele><time>2026-04-24T16:24:10.839Z</time></trkpt><trkpt lat="43.8434979" lon="11.2453899"><ele>561.0</ele><time>2026-04-24T16:24:15.844Z</time></trkpt><trkpt lat="43.8434374" lon="11.2454141"><ele>561.0</ele><time>2026-04-24T16:24:20.85Z</time></trkpt><trkpt lat="43.843358" lon="11.2454438"><ele>561.0</ele><time>2026-04-24T16:24:25.836Z</time></trkpt><trkpt lat="43.8432971" lon="11.2454755"><ele>561.0</ele><time>2026-04-24T16:24:29.834Z</time></trkpt><trkpt lat="43.8432275" lon="11.2454916"><ele>560.4285714285714</ele><time>2026-04-24T16:24:32.83Z</time></trkpt><trkpt lat="43.8431716" lon="11.2455508"><ele>559.8571428571428</ele><time>2026-04-24T16:24:37.85Z</time></trkpt><trkpt lat="43.843122" lon="11.2456065"><ele>559.2857142857142</ele><time>2026-04-24T16:24:51.848Z</time></trkpt><trkpt lat="43.8430647" lon="11.2456513"><ele>558.7142857142857</ele><time>2026-04-24T16:24:57.844Z</time></trkpt><trkpt lat="43.8430066" lon="11.2457034"><ele>558.1428571428571</ele><time>2026-04-24T16:25:24.852Z</time></trkpt><trkpt lat="43.8429359" lon="11.2457564"><ele>557.5714285714286</ele><time>2026-04-24T16:25:31.833Z</time></trkpt><trkpt lat="43.8428831" lon="11.2458122"><ele>557.0</ele><time>2026-04-24T16:25:34.846Z</time></trkpt><trkpt lat="43.8428381" lon="11.2459084"><ele>560.8571428571429</ele><time>2026-04-24T16:25:52.848Z</time></trkpt><trkpt lat="43.8428053" lon="11.2459984"><ele>564.7142857142857</ele><time>2026-04-24T16:25:56.849Z</time></trkpt><trkpt lat="43.8428432" lon="11.2460792"><ele>568.5714285714286</ele><time>2026-04-24T16:27:32.862Z</time></trkpt><trkpt lat="43.8428728" lon="11.2461806"><ele>572.4285714285714</ele><time>2026-04-24T16:27:54.868Z</time></trkpt><trkpt lat="43.8429461" lon="11.2462082"><ele>576.2857142857143</ele><time>2026-04-24T16:27:58.859Z</time></trkpt><trkpt lat="43.8430103" lon="11.2462049"><ele>580.1428571428571</ele><time>2026-04-24T16:28:01.863Z</time></trkpt><trkpt lat="43.8430779" lon="11.2461983"><ele>584.0</ele><time>2026-04-24T16:28:04.855Z</time></trkpt><trkpt lat="43.8431485" lon="11.2461948"><ele>584.0</ele><time>2026-04-24T16:28:07.864Z</time></trkpt><trkpt lat="43.8432226" lon="11.2461885"><ele>584.0</ele><time>2026-04-24T16:28:10.86Z</time></trkpt><trkpt lat="43.8433039" lon="11.2461968"><ele>584.0</ele><time>2026-04-24T16:28:13.864Z</time></trkpt><trkpt lat="43.843386" lon="11.2462028"><ele>584.0</ele><time>2026-04-24T16:28:16.866Z</time></trkpt><trkpt lat="43.8434733" lon="11.2462202"><ele>584.0</ele><time>2026-04-24T16:28:19.867Z</time></trkpt><trkpt lat="43.8435368" lon="11.2462271"><ele>584.0</ele><time>2026-04-24T16:28:21.864Z</time></trkpt><trkpt lat="43.8436254" lon="11.2462355"><ele>584.5</ele><time>2026-04-24T16:28:24.86Z</time></trkpt><trkpt lat="43.8437229" lon="11.2462324"><ele>585.0</ele><time>2026-04-24T16:28:27.856Z</time></trkpt><trkpt lat="43.8437921" lon="11.2462463"><ele>585.5</ele><time>2026-04-24T16:28:29.858Z</time></trkpt><trkpt lat="43.8438838" lon="11.2462422"><ele>586.0</ele><time>2026-04-24T16:28:32.862Z</time></trkpt><trkpt lat="43.8439557" lon="11.2462484"><ele>586.5</ele><time>2026-04-24T16:28:34.852Z</time></trkpt><trkpt lat="43.8440221" lon="11.246239"><ele>587.0</ele><time>2026-04-24T16:28:36.859Z</time></trkpt><trkpt lat="43.8440879" lon="11.2462391"><ele>587.0</ele><time>2026-04-24T16:28:38.858Z</time></trkpt><trkpt lat="43.8441579" lon="11.24624"><ele>587.0</ele><time>2026-04-24T16:28:40.852Z</time></trkpt><trkpt lat="43.844221" lon="11.2462484"><ele>587.0</ele><time>2026-04-24T16:28:42.857Z</time></trkpt><trkpt lat="43.8442871" lon="11.2462525"><ele>587.0</ele><time>2026-04-24T16:28:44.853Z</time></trkpt><trkpt lat="43.844357" lon="11.2462528"><ele>587.0</ele><time>2026-04-24T16:28:46.849Z</time></trkpt><trkpt lat="43.8444208" lon="11.2462499"><ele>587.0</ele><time>2026-04-24T16:28:48.845Z</time></trkpt><trkpt lat="43.8444835" lon="11.2462401"><ele>587.0</ele><time>2026-04-24T16:28:50.851Z</time></trkpt><trkpt lat="43.8445482" lon="11.2462414"><ele>587.7142857142858</ele><time>2026-04-24T16:28:52.849Z</time></trkpt><trkpt lat="43.8446123" lon="11.246239"><ele>588.4285714285714</ele><time>2026-04-24T16:28:54.848Z</time></trkpt><trkpt lat="43.844704" lon="11.2462454"><ele>589.1428571428571</ele><time>2026-04-24T16:28:57.849Z</time></trkpt><trkpt lat="43.8447777" lon="11.2462525"><ele>589.8571428571429</ele><time>2026-04-24T16:28:59.847Z</time></trkpt><trkpt lat="43.8448449" lon="11.2462575"><ele>590.5714285714286</ele><time>2026-04-24T16:29:01.846Z</time></trkpt><trkpt lat="43.8449166" lon="11.2462475"><ele>591.2857142857143</ele><time>2026-04-24T16:29:03.852Z</time></trkpt><trkpt lat="43.8449822" lon="11.246236"><ele>592.0</ele><time>2026-04-24T16:29:05.851Z</time></trkpt><trkpt lat="43.8450454" lon="11.2462243"><ele>591.6666666666667</ele><time>2026-04-24T16:29:07.85Z</time></trkpt><trkpt lat="43.8451301" lon="11.2461792"><ele>591.3333333333334</ele><time>2026-04-24T16:29:10.856Z</time></trkpt><trkpt lat="43.8451922" lon="11.2461504"><ele>591.0</ele><time>2026-04-24T16:29:12.853Z</time></trkpt><trkpt lat="43.8452703" lon="11.2461345"><ele>590.6666666666666</ele><time>2026-04-24T16:29:14.869Z</time></trkpt><trkpt lat="43.8453477" lon="11.2461247"><ele>590.3333333333333</ele><time>2026-04-24T16:29:16.854Z</time></trkpt><trkpt lat="43.8454195" lon="11.2461124"><ele>590.0</ele><time>2026-04-24T16:29:18.859Z</time></trkpt><trkpt lat="43.8454861" lon="11.2460945"><ele>590.0000000000001</ele><time>2026-04-24T16:29:20.859Z</time></trkpt><trkpt lat="43.8455573" lon="11.2460742"><ele>590.0</ele><time>2026-04-24T16:29:22.858Z</time></trkpt><trkpt lat="43.8456319" lon="11.2460631"><ele>590.0</ele><time>2026-04-24T16:29:24.861Z</time></trkpt><trkpt lat="43.8457028" lon="11.2460502"><ele>590.0</ele><time>2026-04-24T16:29:26.863Z</time></trkpt><trkpt lat="43.8457686" lon="11.2460476"><ele>590.0</ele><time>2026-04-24T16:29:28.856Z</time></trkpt><trkpt lat="43.8458373" lon="11.246033"><ele>590.0000000000001</ele><time>2026-04-24T16:29:30.86Z</time></trkpt><trkpt lat="43.845911" lon="11.2460303"><ele>590.0</ele><time>2026-04-24T16:29:32.857Z</time></trkpt><trkpt lat="43.8459788" lon="11.2460326"><ele>588.1666666666666</ele><time>2026-04-24T16:29:34.859Z</time></trkpt><trkpt lat="43.8460515" lon="11.2460457"><ele>586.3333333333333</ele><time>2026-04-24T16:29:36.859Z</time></trkpt><trkpt lat="43.8461201" lon="11.2460739"><ele>584.5</ele><time>2026-04-24T16:29:38.854Z</time></trkpt><trkpt lat="43.8461993" lon="11.2461624"><ele>582.6666666666666</ele><time>2026-04-24T16:29:41.852Z</time></trkpt><trkpt lat="43.8462673" lon="11.2462205"><ele>580.8333333333334</ele><time>2026-04-24T16:29:43.855Z</time></trkpt><trkpt lat="43.8463536" lon="11.246291"><ele>579.0</ele><time>2026-04-24T16:29:46.851Z</time></trkpt><trkpt lat="43.8464142" lon="11.2463675"><ele>578.9999999999999</ele><time>2026-04-24T16:29:48.849Z</time></trkpt><trkpt lat="43.8464622" lon="11.2464292"><ele>579.0</ele><time>2026-04-24T16:29:50.856Z</time></trkpt><trkpt lat="43.8465172" lon="11.2465075"><ele>579.0</ele><time>2026-04-24T16:29:52.857Z</time></trkpt><trkpt lat="43.8465798" lon="11.246579"><ele>579.0</ele><time>2026-04-24T16:29:54.853Z</time></trkpt><trkpt lat="43.8466384" lon="11.2466375"><ele>579.0</ele><time>2026-04-24T16:29:56.859Z</time></trkpt><trkpt lat="43.846699" lon="11.2466875"><ele>578.9999999999999</ele><time>2026-04-24T16:29:58.863Z</time></trkpt><trkpt lat="43.8467577" lon="11.2467197"><ele>579.0</ele><time>2026-04-24T16:30:00.855Z</time></trkpt><trkpt lat="43.8468227" lon="11.2467476"><ele>582.3333333333334</ele><time>2026-04-24T16:30:03.853Z</time></trkpt><trkpt lat="43.846909" lon="11.2468022"><ele>585.6666666666666</ele><time>2026-04-24T16:30:06.852Z</time></trkpt><trkpt lat="43.8469859" lon="11.2468308"><ele>589.0</ele><time>2026-04-24T16:30:08.855Z</time></trkpt><trkpt lat="43.8470602" lon="11.2468719"><ele>592.3333333333333</ele><time>2026-04-24T16:30:10.852Z</time></trkpt><trkpt lat="43.8471355" lon="11.2469059"><ele>595.6666666666666</ele><time>2026-04-24T16:30:12.853Z</time></trkpt><trkpt lat="43.8472006" lon="11.2469417"><ele>599.0</ele><time>2026-04-24T16:30:14.848Z</time></trkpt><trkpt lat="43.8472722" lon="11.2469827"><ele>599.0</ele><time>2026-04-24T16:30:16.852Z</time></trkpt><trkpt lat="43.8473292" lon="11.24705"><ele>599.0</ele><time>2026-04-24T16:30:18.843Z</time></trkpt><trkpt lat="43.8473899" lon="11.2470893"><ele>599.0</ele><time>2026-04-24T16:30:20.847Z</time></trkpt><trkpt lat="43.8474568" lon="11.2470945"><ele>599.0</ele><time>2026-04-24T16:30:22.843Z</time></trkpt><trkpt lat="43.8475256" lon="11.2470961"><ele>599.0</ele><time>2026-04-24T16:30:24.841Z</time></trkpt><trkpt lat="43.8476096" lon="11.2470605"><ele>599.0</ele><time>2026-04-24T16:30:27.846Z</time></trkpt><trkpt lat="43.8476723" lon="11.2470282"><ele>599.0</ele><time>2026-04-24T16:30:29.852Z</time></trkpt><trkpt lat="43.8477449" lon="11.247021"><ele>599.6666666666666</ele><time>2026-04-24T16:30:31.849Z</time></trkpt><trkpt lat="43.8478155" lon="11.247012"><ele>600.3333333333333</ele><time>2026-04-24T16:30:33.865Z</time></trkpt><trkpt lat="43.8478777" lon="11.2469568"><ele>601.0</ele><time>2026-04-24T16:30:35.851Z</time></trkpt><trkpt lat="43.8479701" lon="11.246905"><ele>601.6666666666666</ele><time>2026-04-24T16:30:38.852Z</time></trkpt><trkpt lat="43.8480384" lon="11.2468753"><ele>602.3333333333334</ele><time>2026-04-24T16:30:40.855Z</time></trkpt><trkpt lat="43.8481146" lon="11.2468561"><ele>603.0</ele><time>2026-04-24T16:30:42.858Z</time></trkpt><trkpt lat="43.8481932" lon="11.2468167"><ele>603.0</ele><time>2026-04-24T16:30:44.856Z</time></trkpt><trkpt lat="43.8482626" lon="11.2467843"><ele>603.0</ele><time>2026-04-24T16:30:46.86Z</time></trkpt><trkpt lat="43.8483372" lon="11.2467707"><ele>603.0</ele><time>2026-04-24T16:30:48.856Z</time></trkpt><trkpt lat="43.8484176" lon="11.2467743"><ele>603.0</ele><time>2026-04-24T16:30:50.863Z</time></trkpt><trkpt lat="43.8484908" lon="11.2467952"><ele>603.0</ele><time>2026-04-24T16:30:52.858Z</time></trkpt><trkpt lat="43.848572" lon="11.2468226"><ele>603.0</ele><time>2026-04-24T16:30:54.862Z</time></trkpt><trkpt lat="43.84866" lon="11.2468511"><ele>603.6666666666666</ele><time>2026-04-24T16:30:56.862Z</time></trkpt><trkpt lat="43.8487402" lon="11.246887"><ele>604.3333333333334</ele><time>2026-04-24T16:30:58.862Z</time></trkpt><trkpt lat="43.848824" lon="11.2469092"><ele>605.0</ele><time>2026-04-24T16:31:00.856Z</time></trkpt><trkpt lat="43.8489073" lon="11.2469251"><ele>605.6666666666667</ele><time>2026-04-24T16:31:02.851Z</time></trkpt><trkpt lat="43.8489927" lon="11.2469422"><ele>606.3333333333334</ele><time>2026-04-24T16:31:04.859Z</time></trkpt><trkpt lat="43.849069" lon="11.2469486"><ele>607.0</ele><time>2026-04-24T16:31:06.851Z</time></trkpt><trkpt lat="43.8491436" lon="11.2469392"><ele>607.0</ele><time>2026-04-24T16:31:08.85Z</time></trkpt><trkpt lat="43.8492168" lon="11.2469306"><ele>607.0</ele><time>2026-04-24T16:31:10.855Z</time></trkpt><trkpt lat="43.8492935" lon="11.2469205"><ele>607.0</ele><time>2026-04-24T16:31:12.849Z</time></trkpt><trkpt lat="43.8493642" lon="11.2468845"><ele>607.0</ele><time>2026-04-24T16:31:14.849Z</time></trkpt><trkpt lat="43.8494311" lon="11.2468227"><ele>607.0</ele><time>2026-04-24T16:31:16.851Z</time></trkpt><trkpt lat="43.8494874" lon="11.2467529"><ele>607.0</ele><time>2026-04-24T16:31:18.871Z</time></trkpt><trkpt lat="43.8495475" lon="11.2466856"><ele>607.0</ele><time>2026-04-24T16:31:20.863Z</time></trkpt><trkpt lat="43.8496039" lon="11.2466231"><ele>607.0</ele><time>2026-04-24T16:31:22.865Z</time></trkpt><trkpt lat="43.8496576" lon="11.2465561"><ele>607.0</ele><time>2026-04-24T16:31:24.864Z</time></trkpt><trkpt lat="43.8497052" lon="11.246487"><ele>607.0</ele><time>2026-04-24T16:31:26.864Z</time></trkpt><trkpt lat="43.8497567" lon="11.246422"><ele>607.0</ele><time>2026-04-24T16:31:28.864Z</time></trkpt><trkpt lat="43.8498313" lon="11.2463407"><ele>607.0</ele><time>2026-04-24T16:31:31.858Z</time></trkpt><trkpt lat="43.849894" lon="11.246276"><ele>607.0</ele><time>2026-04-24T16:31:33.876Z</time></trkpt><trkpt lat="43.8499485" lon="11.2462059"><ele>607.0</ele><time>2026-04-24T16:31:35.862Z</time></trkpt><trkpt lat="43.8499964" lon="11.2461373"><ele>607.0</ele><time>2026-04-24T16:31:37.862Z</time></trkpt><trkpt lat="43.850043" lon="11.2460619"><ele>607.0</ele><time>2026-04-24T16:31:39.857Z</time></trkpt><trkpt lat="43.8501024" lon="11.2459566"><ele>607.0</ele><time>2026-04-24T16:31:42.86Z</time></trkpt><trkpt lat="43.8501356" lon="11.2458703"><ele>607.0</ele><time>2026-04-24T16:31:44.859Z</time></trkpt><trkpt lat="43.8501648" lon="11.2457714"><ele>610.3333333333334</ele><time>2026-04-24T16:31:46.86Z</time></trkpt><trkpt lat="43.850201" lon="11.2456896"><ele>613.6666666666667</ele><time>2026-04-24T16:31:48.86Z</time></trkpt><trkpt lat="43.8502302" lon="11.2456059"><ele>617.0</ele><time>2026-04-24T16:31:50.858Z</time></trkpt><trkpt lat="43.8502609" lon="11.2455271"><ele>620.3333333333334</ele><time>2026-04-24T16:31:52.865Z</time></trkpt><trkpt lat="43.8503108" lon="11.2454209"><ele>623.6666666666666</ele><time>2026-04-24T16:31:55.863Z</time></trkpt><trkpt lat="43.8503508" lon="11.2453131"><ele>627.0</ele><time>2026-04-24T16:31:58.864Z</time></trkpt><trkpt lat="43.8503807" lon="11.2452105"><ele>627.0</ele><time>2026-04-24T16:32:01.863Z</time></trkpt><trkpt lat="43.850421" lon="11.2450837"><ele>627.0</ele><time>2026-04-24T16:32:04.857Z</time></trkpt><trkpt lat="43.850438" lon="11.2449851"><ele>627.0</ele><time>2026-04-24T16:32:06.863Z</time></trkpt><trkpt lat="43.8504468" lon="11.2448844"><ele>627.0</ele><time>2026-04-24T16:32:08.855Z</time></trkpt><trkpt lat="43.8504496" lon="11.2447725"><ele>627.0</ele><time>2026-04-24T16:32:10.865Z</time></trkpt><trkpt lat="43.8504542" lon="11.2446383"><ele>627.0</ele><time>2026-04-24T16:32:12.857Z</time></trkpt><trkpt lat="43.8504802" lon="11.2444925"><ele>625.6</ele><time>2026-04-24T16:32:14.857Z</time></trkpt><trkpt lat="43.8505031" lon="11.2443515"><ele>624.2</ele><time>2026-04-24T16:32:16.853Z</time></trkpt><trkpt lat="43.8505345" lon="11.2442217"><ele>622.8</ele><time>2026-04-24T16:32:18.855Z</time></trkpt><trkpt lat="43.8505651" lon="11.2440851"><ele>621.4</ele><time>2026-04-24T16:32:20.881Z</time></trkpt><trkpt lat="43.8506003" lon="11.2439493"><ele>620.0</ele><time>2026-04-24T16:32:22.86Z</time></trkpt><trkpt lat="43.8506192" lon="11.2438191"><ele>619.2</ele><time>2026-04-24T16:32:24.859Z</time></trkpt><trkpt lat="43.8506321" lon="11.2436997"><ele>618.4</ele><time>2026-04-24T16:32:26.865Z</time></trkpt><trkpt lat="43.8506524" lon="11.2435539"><ele>617.6</ele><time>2026-04-24T16:32:28.863Z</time></trkpt><trkpt lat="43.8506746" lon="11.2434097"><ele>616.8</ele><time>2026-04-24T16:32:30.864Z</time></trkpt><trkpt lat="43.8506955" lon="11.24327"><ele>616.0</ele><time>2026-04-24T16:32:32.857Z</time></trkpt><trkpt lat="43.8507201" lon="11.243129"><ele>615.2</ele><time>2026-04-24T16:32:34.864Z</time></trkpt><trkpt lat="43.8507465" lon="11.2429866"><ele>614.4000000000001</ele><time>2026-04-24T16:32:36.859Z</time></trkpt><trkpt lat="43.8507569" lon="11.2428483"><ele>613.6</ele><time>2026-04-24T16:32:38.858Z</time></trkpt><trkpt lat="43.8507685" lon="11.2427037"><ele>612.8000000000001</ele><time>2026-04-24T16:32:40.857Z</time></trkpt><trkpt lat="43.8507855" lon="11.2425682"><ele>612.0</ele><time>2026-04-24T16:32:42.858Z</time></trkpt><trkpt lat="43.8507912" lon="11.2424211"><ele>610.4</ele><time>2026-04-24T16:32:44.856Z</time></trkpt><trkpt lat="43.8507991" lon="11.2422869"><ele>608.8000000000001</ele><time>2026-04-24T16:32:46.857Z</time></trkpt><trkpt lat="43.8508132" lon="11.2421364"><ele>607.2</ele><time>2026-04-24T16:32:48.859Z</time></trkpt><trkpt lat="43.8508142" lon="11.2419832"><ele>605.6</ele><time>2026-04-24T16:32:50.858Z</time></trkpt><trkpt lat="43.8508252" lon="11.2418876"><ele>604.0</ele><time>2026-04-24T16:32:51.869Z</time></trkpt><trkpt lat="43.8508384" lon="11.2417227"><ele>604.0</ele><time>2026-04-24T16:32:53.843Z</time></trkpt><trkpt lat="43.8508362" lon="11.2415705"><ele>604.0</ele><time>2026-04-24T16:32:55.855Z</time></trkpt><trkpt lat="43.8508454" lon="11.2414664"><ele>604.0</ele><time>2026-04-24T16:32:56.858Z</time></trkpt><trkpt lat="43.8508508" lon="11.2413571"><ele>604.0</ele><time>2026-04-24T16:32:57.857Z</time></trkpt><trkpt lat="43.8508492" lon="11.241252"><ele>604.0</ele><time>2026-04-24T16:32:58.852Z</time></trkpt><trkpt lat="43.8508382" lon="11.2411471"><ele>604.0</ele><time>2026-04-24T16:32:59.857Z</time></trkpt><trkpt lat="43.8508279" lon="11.241046"><ele>603.5</ele><time>2026-04-24T16:33:00.862Z</time></trkpt><trkpt lat="43.8508164" lon="11.2409438"><ele>603.0</ele><time>2026-04-24T16:33:01.849Z</time></trkpt><trkpt lat="43.8508134" lon="11.2408459"><ele>602.5</ele><time>2026-04-24T16:33:02.854Z</time></trkpt><trkpt lat="43.8508084" lon="11.2407437"><ele>602.0</ele><time>2026-04-24T16:33:03.86Z</time></trkpt><trkpt lat="43.8508" lon="11.240641"><ele>601.5</ele><time>2026-04-24T16:33:04.856Z</time></trkpt><trkpt lat="43.8507956" lon="11.240534"><ele>601.0</ele><time>2026-04-24T16:33:05.859Z</time></trkpt><trkpt lat="43.8508013" lon="11.2404236"><ele>600.5</ele><time>2026-04-24T16:33:06.859Z</time></trkpt><trkpt lat="43.8508268" lon="11.2402999"><ele>600.0</ele><time>2026-04-24T16:33:07.86Z</time></trkpt><trkpt lat="43.8508411" lon="11.2401786"><ele>599.5</ele><time>2026-04-24T16:33:08.862Z</time></trkpt><trkpt lat="43.8508597" lon="11.2400633"><ele>599.0</ele><time>2026-04-24T16:33:09.863Z</time></trkpt><trkpt lat="43.8508808" lon="11.2399479"><ele>598.5</ele><time>2026-04-24T16:33:10.871Z</time></trkpt><trkpt lat="43.8508971" lon="11.2398335"><ele>598.0</ele><time>2026-04-24T16:33:11.861Z</time></trkpt><trkpt lat="43.8509174" lon="11.2397277"><ele>597.0</ele><time>2026-04-24T16:33:12.867Z</time></trkpt><trkpt lat="43.8509417" lon="11.2396169"><ele>596.0</ele><time>2026-04-24T16:33:13.862Z</time></trkpt><trkpt lat="43.8509651" lon="11.2394996"><ele>595.0</ele><time>2026-04-24T16:33:14.864Z</time></trkpt><trkpt lat="43.8509931" lon="11.2393823"><ele>594.0</ele><time>2026-04-24T16:33:15.863Z</time></trkpt><trkpt lat="43.8510202" lon="11.2392655"><ele>593.0</ele><time>2026-04-24T16:33:16.865Z</time></trkpt><trkpt lat="43.851044" lon="11.2391453"><ele>592.0</ele><time>2026-04-24T16:33:17.862Z</time></trkpt><trkpt lat="43.8510627" lon="11.239022"><ele>592.2</ele><time>2026-04-24T16:33:18.862Z</time></trkpt><trkpt lat="43.8510774" lon="11.2388941"><ele>592.4000000000001</ele><time>2026-04-24T16:33:19.858Z</time></trkpt><trkpt lat="43.8510885" lon="11.2387693"><ele>592.5999999999999</ele><time>2026-04-24T16:33:20.872Z</time></trkpt><trkpt lat="43.8511011" lon="11.2386503"><ele>592.8</ele><time>2026-04-24T16:33:21.86Z</time></trkpt><trkpt lat="43.8511276" lon="11.2385586"><ele>593.0</ele><time>2026-04-24T16:33:22.866Z</time></trkpt><trkpt lat="43.8512177" lon="11.2384728"><ele>592.9999999999999</ele><time>2026-04-24T16:33:24.854Z</time></trkpt><trkpt lat="43.8512889" lon="11.238477"><ele>593.0</ele><time>2026-04-24T16:33:26.866Z</time></trkpt><trkpt lat="43.8513397" lon="11.2385364"><ele>593.0</ele><time>2026-04-24T16:33:30.872Z</time></trkpt><trkpt lat="43.8513997" lon="11.2385811"><ele>593.0</ele><time>2026-04-24T16:33:36.867Z</time></trkpt><trkpt lat="43.8514669" lon="11.2385969"><ele>593.0</ele><time>2026-04-24T16:33:41.872Z</time></trkpt><trkpt lat="43.8515322" lon="11.2385945"><ele>592.9999999999999</ele><time>2026-04-24T16:34:05.869Z</time></trkpt><trkpt lat="43.8515997" lon="11.2386355"><ele>593.0</ele><time>2026-04-24T16:34:10.868Z</time></trkpt><trkpt lat="43.8516623" lon="11.2386807"><ele>592.9999999999999</ele><time>2026-04-24T16:34:15.866Z</time></trkpt><trkpt lat="43.8517401" lon="11.2386474"><ele>593.0</ele><time>2026-04-24T16:34:55.881Z</time></trkpt><trkpt lat="43.8518124" lon="11.2386427"><ele>593.0</ele><time>2026-04-24T16:34:59.865Z</time></trkpt><trkpt lat="43.8518914" lon="11.2386656"><ele>593.0</ele><time>2026-04-24T16:35:04.861Z</time></trkpt><trkpt lat="43.8519561" lon="11.2386741"><ele>593.0</ele><time>2026-04-24T16:35:08.863Z</time></trkpt><trkpt lat="43.8520234" lon="11.2386837"><ele>592.9999999999999</ele><time>2026-04-24T16:35:12.859Z</time></trkpt><trkpt lat="43.8520976" lon="11.2386609"><ele>593.0</ele><time>2026-04-24T16:35:17.851Z</time></trkpt><trkpt lat="43.8521596" lon="11.2386232"><ele>611.0</ele><time>2026-04-24T16:35:22.859Z</time></trkpt><trkpt lat="43.8522295" lon="11.2385883"><ele>611.0</ele><time>2026-04-24T16:35:28.868Z</time></trkpt><trkpt lat="43.8522976" lon="11.2385816"><ele>611.0</ele><time>2026-04-24T16:35:42.866Z</time></trkpt><trkpt lat="43.852371" lon="11.2385708"><ele>611.0</ele><time>2026-04-24T16:35:47.868Z</time></trkpt><trkpt lat="43.8524244" lon="11.2385191"><ele>611.0</ele><time>2026-04-24T16:39:28.875Z</time></trkpt><trkpt lat="43.852463" lon="11.2386205"><ele>611.0</ele><time>2026-04-24T16:46:05.851Z</time></trkpt><trkpt lat="43.8525128" lon="11.2386924"><ele>611.0</ele><time>2026-04-24T16:51:54.837Z</time></trkpt></trkseg></trk></gpx>